<?xml version="1.0" encoding="utf-8"?>
<gpx xmlns:xsi="http://www.w3.org/2001/XMLSchema-instance" xmlns:xsd="http://www.w3.org/2001/XMLSchema" version="1.1" creator="Shapelink.com" xmlns="http://www.topografix.com/GPX/1/1" xmlns:gpxtpx="http://www.garmin.com/xmlschemas/TrackPointExtension/v1">
  <metadata>
    <name>Alpine skiing 7.75 km, 2018-01-29</name>
    <desc></desc>
    <author><name>Stefan Östlund</name></author> 
    <time>2018-01-29T09:26:21Z</time>
  </metadata>
  <trk>
    <name>Alpine skiing 7.75 km, 2018-01-29</name>
    <trkseg>
      <trkpt lat="45.690007216275" lon="6.916414722787">
        <ele>2152</ele>
        <time>2018-01-29T09:26:21Z</time>
      </trkpt>
      <trkpt lat="45.689978214901" lon="6.916474653372">
        <ele>2150.8</ele>
        <time>2018-01-29T09:26:22Z</time>
      </trkpt>
      <trkpt lat="45.689950973726" lon="6.916535003052">
        <ele>2149.4</ele>
        <time>2018-01-29T09:26:23Z</time>
      </trkpt>
      <trkpt lat="45.689922056171" lon="6.916597280569">
        <ele>2148.2</ele>
        <time>2018-01-29T09:26:24Z</time>
      </trkpt>
      <trkpt lat="45.689889199123" lon="6.916649332168">
        <ele>2147</ele>
        <time>2018-01-29T09:26:25Z</time>
      </trkpt>
      <trkpt lat="45.6898626285" lon="6.916680596655">
        <ele>2145.8</ele>
        <time>2018-01-29T09:26:26Z</time>
      </trkpt>
      <trkpt lat="45.689847792537" lon="6.916710520038">
        <ele>2144.2</ele>
        <time>2018-01-29T09:26:28Z</time>
      </trkpt>
      <trkpt lat="45.689851396754" lon="6.916727619114">
        <ele>2143.2</ele>
        <time>2018-01-29T09:26:34Z</time>
      </trkpt>
      <trkpt lat="45.689972766666" lon="6.916889222146">
        <ele>2142</ele>
        <time>2018-01-29T09:26:50Z</time>
      </trkpt>
      <trkpt lat="45.689972263752" lon="6.916988296204">
        <ele>2140.6</ele>
        <time>2018-01-29T09:26:52Z</time>
      </trkpt>
      <trkpt lat="45.689983830774" lon="6.917039425794">
        <ele>2139.6</ele>
        <time>2018-01-29T09:26:53Z</time>
      </trkpt>
      <trkpt lat="45.689975448874" lon="6.917130872323">
        <ele>2137.8</ele>
        <time>2018-01-29T09:26:55Z</time>
      </trkpt>
      <trkpt lat="45.689968575716" lon="6.917162807362">
        <ele>2136.6</ele>
        <time>2018-01-29T09:26:56Z</time>
      </trkpt>
      <trkpt lat="45.689952482468" lon="6.917186779596">
        <ele>2135.2</ele>
        <time>2018-01-29T09:26:57Z</time>
      </trkpt>
      <trkpt lat="45.68993136008" lon="6.917201028826">
        <ele>2133.8</ele>
        <time>2018-01-29T09:26:58Z</time>
      </trkpt>
      <trkpt lat="45.689909734778" lon="6.917208488717">
        <ele>2132.6</ele>
        <time>2018-01-29T09:26:59Z</time>
      </trkpt>
      <trkpt lat="45.689897078109" lon="6.917213350219">
        <ele>2131.4</ele>
        <time>2018-01-29T09:27:01Z</time>
      </trkpt>
      <trkpt lat="45.689895066453" lon="6.917222905585">
        <ele>2130.6</ele>
        <time>2018-01-29T09:27:07Z</time>
      </trkpt>
      <trkpt lat="45.68989950886" lon="6.917237741548">
        <ele>2130.8</ele>
        <time>2018-01-29T09:27:11Z</time>
      </trkpt>
      <trkpt lat="45.689964636223" lon="6.917287278577">
        <ele>2130</ele>
        <time>2018-01-29T09:27:14Z</time>
      </trkpt>
      <trkpt lat="45.69008810161" lon="6.917350226646">
        <ele>2129</ele>
        <time>2018-01-29T09:27:18Z</time>
      </trkpt>
      <trkpt lat="45.690199329423" lon="6.91741778476">
        <ele>2127.6</ele>
        <time>2018-01-29T09:27:21Z</time>
      </trkpt>
      <trkpt lat="45.690284740984" lon="6.917468998169">
        <ele>2126.4</ele>
        <time>2018-01-29T09:27:23Z</time>
      </trkpt>
      <trkpt lat="45.690357914971" lon="6.917512081135">
        <ele>2125</ele>
        <time>2018-01-29T09:27:25Z</time>
      </trkpt>
      <trkpt lat="45.690417342642" lon="6.917566647304">
        <ele>2123.4</ele>
        <time>2018-01-29T09:27:27Z</time>
      </trkpt>
      <trkpt lat="45.690390101467" lon="6.917652980874">
        <ele>2121.6</ele>
        <time>2018-01-29T09:27:29Z</time>
      </trkpt>
      <trkpt lat="45.69037140983" lon="6.917701344437">
        <ele>2120.6</ele>
        <time>2018-01-29T09:27:30Z</time>
      </trkpt>
      <trkpt lat="45.690357747333" lon="6.917763621954">
        <ele>2119</ele>
        <time>2018-01-29T09:27:31Z</time>
      </trkpt>
      <trkpt lat="45.690335954393" lon="6.917828749317">
        <ele>2117.4</ele>
        <time>2018-01-29T09:27:32Z</time>
      </trkpt>
      <trkpt lat="45.690310808693" lon="6.917887422617">
        <ele>2115</ele>
        <time>2018-01-29T09:27:33Z</time>
      </trkpt>
      <trkpt lat="45.690296643282" lon="6.91794500627">
        <ele>2112.8</ele>
        <time>2018-01-29T09:27:34Z</time>
      </trkpt>
      <trkpt lat="45.690302510612" lon="6.917998566611">
        <ele>2110.4</ele>
        <time>2018-01-29T09:27:35Z</time>
      </trkpt>
      <trkpt lat="45.690301169508" lon="6.91805648554">
        <ele>2108.4</ele>
        <time>2018-01-29T09:27:36Z</time>
      </trkpt>
      <trkpt lat="45.690287171735" lon="6.918112392813">
        <ele>2106.2</ele>
        <time>2018-01-29T09:27:37Z</time>
      </trkpt>
      <trkpt lat="45.690276442903" lon="6.918175927615">
        <ele>2104.2</ele>
        <time>2018-01-29T09:27:38Z</time>
      </trkpt>
      <trkpt lat="45.6903068692" lon="6.918220938418">
        <ele>2102.2</ele>
        <time>2018-01-29T09:27:39Z</time>
      </trkpt>
      <trkpt lat="45.690345928854" lon="6.918263015556">
        <ele>2100</ele>
        <time>2018-01-29T09:27:40Z</time>
      </trkpt>
      <trkpt lat="45.690349784528" lon="6.918321185942">
        <ele>2098.2</ele>
        <time>2018-01-29T09:27:41Z</time>
      </trkpt>
      <trkpt lat="45.690323549181" lon="6.918378266681">
        <ele>2096.2</ele>
        <time>2018-01-29T09:27:42Z</time>
      </trkpt>
      <trkpt lat="45.690293122884" lon="6.918434257773">
        <ele>2094</ele>
        <time>2018-01-29T09:27:43Z</time>
      </trkpt>
      <trkpt lat="45.690287087916" lon="6.918487901933">
        <ele>2091.8</ele>
        <time>2018-01-29T09:27:44Z</time>
      </trkpt>
      <trkpt lat="45.690297062377" lon="6.918542719559">
        <ele>2089.8</ele>
        <time>2018-01-29T09:27:45Z</time>
      </trkpt>
      <trkpt lat="45.690283651337" lon="6.918603488334">
        <ele>2087.6</ele>
        <time>2018-01-29T09:27:46Z</time>
      </trkpt>
      <trkpt lat="45.690272671048" lon="6.918669956801">
        <ele>2085.4</ele>
        <time>2018-01-29T09:27:47Z</time>
      </trkpt>
      <trkpt lat="45.690290356857" lon="6.918740700037">
        <ele>2083.2</ele>
        <time>2018-01-29T09:27:48Z</time>
      </trkpt>
      <trkpt lat="45.690295637454" lon="6.918821166277">
        <ele>2081</ele>
        <time>2018-01-29T09:27:49Z</time>
      </trkpt>
      <trkpt lat="45.690300498956" lon="6.918901967793">
        <ele>2078.6</ele>
        <time>2018-01-29T09:27:50Z</time>
      </trkpt>
      <trkpt lat="45.69032111843" lon="6.918987211716">
        <ele>2076</ele>
        <time>2018-01-29T09:27:51Z</time>
      </trkpt>
      <trkpt lat="45.690330422339" lon="6.919061307712">
        <ele>2073.6</ele>
        <time>2018-01-29T09:27:52Z</time>
      </trkpt>
      <trkpt lat="45.690319525869" lon="6.919124004324">
        <ele>2071.2</ele>
        <time>2018-01-29T09:27:53Z</time>
      </trkpt>
      <trkpt lat="45.690298403481" lon="6.919174379543">
        <ele>2069</ele>
        <time>2018-01-29T09:27:54Z</time>
      </trkpt>
      <trkpt lat="45.690318184765" lon="6.919188796411">
        <ele>2066.8</ele>
        <time>2018-01-29T09:27:55Z</time>
      </trkpt>
      <trkpt lat="45.690339474791" lon="6.9192416862">
        <ele>2065.2</ele>
        <time>2018-01-29T09:27:56Z</time>
      </trkpt>
      <trkpt lat="45.690342324637" lon="6.919311004513">
        <ele>2063.8</ele>
        <time>2018-01-29T09:27:57Z</time>
      </trkpt>
      <trkpt lat="45.690350706537" lon="6.919384513776">
        <ele>2062</ele>
        <time>2018-01-29T09:27:58Z</time>
      </trkpt>
      <trkpt lat="45.690374511133" lon="6.919458693591">
        <ele>2059.8</ele>
        <time>2018-01-29T09:27:59Z</time>
      </trkpt>
      <trkpt lat="45.690377360979" lon="6.9195350527">
        <ele>2057.6</ele>
        <time>2018-01-29T09:28:00Z</time>
      </trkpt>
      <trkpt lat="45.690364788129" lon="6.919585427919">
        <ele>2055.8</ele>
        <time>2018-01-29T09:28:01Z</time>
      </trkpt>
      <trkpt lat="45.690348946338" lon="6.919625912496">
        <ele>2054.2</ele>
        <time>2018-01-29T09:28:02Z</time>
      </trkpt>
      <trkpt lat="45.690347521415" lon="6.919679472837">
        <ele>2052.6</ele>
        <time>2018-01-29T09:28:03Z</time>
      </trkpt>
      <trkpt lat="45.69034794051" lon="6.91980830264">
        <ele>2050.8</ele>
        <time>2018-01-29T09:28:05Z</time>
      </trkpt>
      <trkpt lat="45.690334948565" lon="6.919878626781">
        <ele>2049.8</ele>
        <time>2018-01-29T09:28:06Z</time>
      </trkpt>
      <trkpt lat="45.690320028783" lon="6.919945681981">
        <ele>2048.6</ele>
        <time>2018-01-29T09:28:07Z</time>
      </trkpt>
      <trkpt lat="45.690306953019" lon="6.920004020005">
        <ele>2047.6</ele>
        <time>2018-01-29T09:28:08Z</time>
      </trkpt>
      <trkpt lat="45.690300331318" lon="6.920055149595">
        <ele>2046.8</ele>
        <time>2018-01-29T09:28:09Z</time>
      </trkpt>
      <trkpt lat="45.690299074033" lon="6.920149194513">
        <ele>2045.8</ele>
        <time>2018-01-29T09:28:12Z</time>
      </trkpt>
      <trkpt lat="45.690301169508" lon="6.920155564757">
        <ele>2045.2</ele>
        <time>2018-01-29T09:28:14Z</time>
      </trkpt>
      <trkpt lat="45.690302510612" lon="6.920157324956">
        <ele>2044.6</ele>
        <time>2018-01-29T09:28:19Z</time>
      </trkpt>
      <trkpt lat="45.690301420965" lon="6.920158833698">
        <ele>2044.6</ele>
        <time>2018-01-29T09:28:25Z</time>
      </trkpt>
      <trkpt lat="45.690285327717" lon="6.920209125098">
        <ele>2044.4</ele>
        <time>2018-01-29T09:28:27Z</time>
      </trkpt>
      <trkpt lat="45.690277784007" lon="6.920239048481">
        <ele>2043.6</ele>
        <time>2018-01-29T09:28:30Z</time>
      </trkpt>
      <trkpt lat="45.690281891138" lon="6.920231085676">
        <ele>2043.4</ele>
        <time>2018-01-29T09:28:32Z</time>
      </trkpt>
      <trkpt lat="45.690337379316" lon="6.92031289302">
        <ele>2041.6</ele>
        <time>2018-01-29T09:28:53Z</time>
      </trkpt>
      <trkpt lat="45.690362441197" lon="6.920364357886">
        <ele>2040.4</ele>
        <time>2018-01-29T09:28:55Z</time>
      </trkpt>
      <trkpt lat="45.690349113976" lon="6.920437950968">
        <ele>2039.2</ele>
        <time>2018-01-29T09:28:57Z</time>
      </trkpt>
      <trkpt lat="45.690317681851" lon="6.920512466059">
        <ele>2037.8</ele>
        <time>2018-01-29T09:28:59Z</time>
      </trkpt>
      <trkpt lat="45.690313658539" lon="6.920596368878">
        <ele>2037</ele>
        <time>2018-01-29T09:29:01Z</time>
      </trkpt>
      <trkpt lat="45.690316592204" lon="6.920650180676">
        <ele>2036.2</ele>
        <time>2018-01-29T09:29:02Z</time>
      </trkpt>
      <trkpt lat="45.690302091517" lon="6.920692676909">
        <ele>2035.2</ele>
        <time>2018-01-29T09:29:03Z</time>
      </trkpt>
      <trkpt lat="45.690285160079" lon="6.920714050754">
        <ele>2034</ele>
        <time>2018-01-29T09:29:04Z</time>
      </trkpt>
      <trkpt lat="45.690263534777" lon="6.920729221993">
        <ele>2033</ele>
        <time>2018-01-29T09:29:05Z</time>
      </trkpt>
      <trkpt lat="45.690212740463" lon="6.920787057103">
        <ele>2031.8</ele>
        <time>2018-01-29T09:29:07Z</time>
      </trkpt>
      <trkpt lat="45.690181224519" lon="6.920894680699">
        <ele>2030.8</ele>
        <time>2018-01-29T09:29:09Z</time>
      </trkpt>
      <trkpt lat="45.690169992773" lon="6.920961987356">
        <ele>2030.2</ele>
        <time>2018-01-29T09:29:10Z</time>
      </trkpt>
      <trkpt lat="45.690152139326" lon="6.921033401144">
        <ele>2028.8</ele>
        <time>2018-01-29T09:29:11Z</time>
      </trkpt>
      <trkpt lat="45.690136381354" lon="6.92110330619">
        <ele>2027.4</ele>
        <time>2018-01-29T09:29:12Z</time>
      </trkpt>
      <trkpt lat="45.690124395237" lon="6.921160135472">
        <ele>2026</ele>
        <time>2018-01-29T09:29:13Z</time>
      </trkpt>
      <trkpt lat="45.690107631437" lon="6.921234231468">
        <ele>2024.6</ele>
        <time>2018-01-29T09:29:15Z</time>
      </trkpt>
      <trkpt lat="45.690098411347" lon="6.921259963901">
        <ele>2023.6</ele>
        <time>2018-01-29T09:29:17Z</time>
      </trkpt>
      <trkpt lat="45.690095896777" lon="6.921260718272">
        <ele>2023.4</ele>
        <time>2018-01-29T09:29:18Z</time>
      </trkpt>
      <trkpt lat="45.690092627836" lon="6.921250408535">
        <ele>2022.8</ele>
        <time>2018-01-29T09:29:24Z</time>
      </trkpt>
      <trkpt lat="45.690092795474" lon="6.921249570345">
        <ele>2022.8</ele>
        <time>2018-01-29T09:29:26Z</time>
      </trkpt>
      <trkpt lat="45.69000847356" lon="6.921398432889">
        <ele>2017.2</ele>
        <time>2018-01-29T09:30:08Z</time>
      </trkpt>
      <trkpt lat="45.689976706159" lon="6.92146708065">
        <ele>2014.8</ele>
        <time>2018-01-29T09:30:10Z</time>
      </trkpt>
      <trkpt lat="45.689951811916" lon="6.92150144644">
        <ele>2013.2</ele>
        <time>2018-01-29T09:30:11Z</time>
      </trkpt>
      <trkpt lat="45.689940412532" lon="6.921553581858">
        <ele>2011.6</ele>
        <time>2018-01-29T09:30:12Z</time>
      </trkpt>
      <trkpt lat="45.689926666216" lon="6.921616194651">
        <ele>2010</ele>
        <time>2018-01-29T09:30:13Z</time>
      </trkpt>
      <trkpt lat="45.689923313456" lon="6.921690961199">
        <ele>2008.2</ele>
        <time>2018-01-29T09:30:14Z</time>
      </trkpt>
      <trkpt lat="45.689933120279" lon="6.921780982805">
        <ele>2006.4</ele>
        <time>2018-01-29T09:30:15Z</time>
      </trkpt>
      <trkpt lat="45.689943849111" lon="6.921869998583">
        <ele>2004.2</ele>
        <time>2018-01-29T09:30:16Z</time>
      </trkpt>
      <trkpt lat="45.689943346197" lon="6.921953901402">
        <ele>2001.8</ele>
        <time>2018-01-29T09:30:17Z</time>
      </trkpt>
      <trkpt lat="45.689959271807" lon="6.922019950774">
        <ele>1999.6</ele>
        <time>2018-01-29T09:30:18Z</time>
      </trkpt>
      <trkpt lat="45.689977041435" lon="6.922086251603">
        <ele>1997.4</ele>
        <time>2018-01-29T09:30:19Z</time>
      </trkpt>
      <trkpt lat="45.689989781923" lon="6.922149870224">
        <ele>1995.4</ele>
        <time>2018-01-29T09:30:20Z</time>
      </trkpt>
      <trkpt lat="45.690011071949" lon="6.92221055518">
        <ele>1993.4</ele>
        <time>2018-01-29T09:30:21Z</time>
      </trkpt>
      <trkpt lat="45.690044096635" lon="6.922274928172">
        <ele>1991</ele>
        <time>2018-01-29T09:30:22Z</time>
      </trkpt>
      <trkpt lat="45.690061614806" lon="6.922337038051">
        <ele>1988.8</ele>
        <time>2018-01-29T09:30:23Z</time>
      </trkpt>
      <trkpt lat="45.690089694171" lon="6.922384479605">
        <ele>1986.2</ele>
        <time>2018-01-29T09:30:24Z</time>
      </trkpt>
      <trkpt lat="45.690116851527" lon="6.922440135421">
        <ele>1983.8</ele>
        <time>2018-01-29T09:30:25Z</time>
      </trkpt>
      <trkpt lat="45.690136465173" lon="6.922498473445">
        <ele>1981.2</ele>
        <time>2018-01-29T09:30:26Z</time>
      </trkpt>
      <trkpt lat="45.690158174294" lon="6.922562175885">
        <ele>1978.6</ele>
        <time>2018-01-29T09:30:27Z</time>
      </trkpt>
      <trkpt lat="45.690182397985" lon="6.922632416207">
        <ele>1976</ele>
        <time>2018-01-29T09:30:28Z</time>
      </trkpt>
      <trkpt lat="45.690189019686" lon="6.922706847479">
        <ele>1973.4</ele>
        <time>2018-01-29T09:30:29Z</time>
      </trkpt>
      <trkpt lat="45.690173177895" lon="6.922778177448">
        <ele>1971</ele>
        <time>2018-01-29T09:30:30Z</time>
      </trkpt>
      <trkpt lat="45.690144679435" lon="6.922820673681">
        <ele>1968.4</ele>
        <time>2018-01-29T09:30:31Z</time>
      </trkpt>
      <trkpt lat="45.690126825988" lon="6.922847914856">
        <ele>1966.4</ele>
        <time>2018-01-29T09:30:32Z</time>
      </trkpt>
      <trkpt lat="45.690106038876" lon="6.922866103579">
        <ele>1965</ele>
        <time>2018-01-29T09:30:33Z</time>
      </trkpt>
      <trkpt lat="45.690081982823" lon="6.922882196827">
        <ele>1963.6</ele>
        <time>2018-01-29T09:30:35Z</time>
      </trkpt>
      <trkpt lat="45.690080641719" lon="6.922885465768">
        <ele>1963.4</ele>
        <time>2018-01-29T09:30:36Z</time>
      </trkpt>
      <trkpt lat="45.690092711655" lon="6.92288697451">
        <ele>1963.2</ele>
        <time>2018-01-29T09:30:42Z</time>
      </trkpt>
      <trkpt lat="45.690093382207" lon="6.922882699741">
        <ele>1963.2</ele>
        <time>2018-01-29T09:30:48Z</time>
      </trkpt>
      <trkpt lat="45.690103105211" lon="6.922879263162">
        <ele>1963.2</ele>
        <time>2018-01-29T09:30:52Z</time>
      </trkpt>
      <trkpt lat="45.690239059629" lon="6.923113201991">
        <ele>1961.2</ele>
        <time>2018-01-29T09:31:21Z</time>
      </trkpt>
      <trkpt lat="45.690278538378" lon="6.923206576357">
        <ele>1959.8</ele>
        <time>2018-01-29T09:31:22Z</time>
      </trkpt>
      <trkpt lat="45.69031189834" lon="6.923330125563">
        <ele>1957.8</ele>
        <time>2018-01-29T09:31:23Z</time>
      </trkpt>
      <trkpt lat="45.690347689053" lon="6.92347957484">
        <ele>1956</ele>
        <time>2018-01-29T09:31:24Z</time>
      </trkpt>
      <trkpt lat="45.690390017648" lon="6.92363715456">
        <ele>1954.4</ele>
        <time>2018-01-29T09:31:25Z</time>
      </trkpt>
      <trkpt lat="45.690432932976" lon="6.923799260506">
        <ele>1953</ele>
        <time>2018-01-29T09:31:26Z</time>
      </trkpt>
      <trkpt lat="45.690488337335" lon="6.923964635393">
        <ele>1951</ele>
        <time>2018-01-29T09:31:27Z</time>
      </trkpt>
      <trkpt lat="45.690540472753" lon="6.924142834587">
        <ele>1948.8</ele>
        <time>2018-01-29T09:31:28Z</time>
      </trkpt>
      <trkpt lat="45.690594116913" lon="6.924315920822">
        <ele>1946.2</ele>
        <time>2018-01-29T09:31:29Z</time>
      </trkpt>
      <trkpt lat="45.690654801869" lon="6.924480625157">
        <ele>1943.8</ele>
        <time>2018-01-29T09:31:30Z</time>
      </trkpt>
      <trkpt lat="45.690730909521" lon="6.924621273439">
        <ele>1941.6</ele>
        <time>2018-01-29T09:31:31Z</time>
      </trkpt>
      <trkpt lat="45.690825289715" lon="6.924732333614">
        <ele>1939.6</ele>
        <time>2018-01-29T09:31:32Z</time>
      </trkpt>
      <trkpt lat="45.690921094832" lon="6.924831910586">
        <ele>1937.6</ele>
        <time>2018-01-29T09:31:33Z</time>
      </trkpt>
      <trkpt lat="45.691016732311" lon="6.924924279124">
        <ele>1935.2</ele>
        <time>2018-01-29T09:31:34Z</time>
      </trkpt>
      <trkpt lat="45.691109603763" lon="6.925017737309">
        <ele>1933.4</ele>
        <time>2018-01-29T09:31:35Z</time>
      </trkpt>
      <trkpt lat="45.691197781351" lon="6.925107842734">
        <ele>1931.4</ele>
        <time>2018-01-29T09:31:36Z</time>
      </trkpt>
      <trkpt lat="45.691283192912" lon="6.925196942331">
        <ele>1929.8</ele>
        <time>2018-01-29T09:31:37Z</time>
      </trkpt>
      <trkpt lat="45.691368939749" lon="6.925287383032">
        <ele>1928.6</ele>
        <time>2018-01-29T09:31:38Z</time>
      </trkpt>
      <trkpt lat="45.691536074835" lon="6.925473125936">
        <ele>1926.8</ele>
        <time>2018-01-29T09:31:40Z</time>
      </trkpt>
      <trkpt lat="45.691691475261" lon="6.925672950432">
        <ele>1925</ele>
        <time>2018-01-29T09:31:42Z</time>
      </trkpt>
      <trkpt lat="45.691762469954" lon="6.925781579856">
        <ele>1924</ele>
        <time>2018-01-29T09:31:43Z</time>
      </trkpt>
      <trkpt lat="45.691916864552" lon="6.926019709635">
        <ele>1921.6</ele>
        <time>2018-01-29T09:31:45Z</time>
      </trkpt>
      <trkpt lat="45.692000935009" lon="6.926147198334">
        <ele>1920.2</ele>
        <time>2018-01-29T09:31:46Z</time>
      </trkpt>
      <trkpt lat="45.692085173104" lon="6.926275357585">
        <ele>1918.6</ele>
        <time>2018-01-29T09:31:47Z</time>
      </trkpt>
      <trkpt lat="45.692185336809" lon="6.926400918447">
        <ele>1917.2</ele>
        <time>2018-01-29T09:31:48Z</time>
      </trkpt>
      <trkpt lat="45.692290445835" lon="6.926526982223">
        <ele>1915.4</ele>
        <time>2018-01-29T09:31:49Z</time>
      </trkpt>
      <trkpt lat="45.69240569696" lon="6.926656650216">
        <ele>1913.4</ele>
        <time>2018-01-29T09:31:50Z</time>
      </trkpt>
      <trkpt lat="45.692522540646" lon="6.926778523042">
        <ele>1910.8</ele>
        <time>2018-01-29T09:31:51Z</time>
      </trkpt>
      <trkpt lat="45.692642737092" lon="6.926908023397">
        <ele>1908</ele>
        <time>2018-01-29T09:31:52Z</time>
      </trkpt>
      <trkpt lat="45.69276025133" lon="6.927031740241">
        <ele>1905.2</ele>
        <time>2018-01-29T09:31:53Z</time>
      </trkpt>
      <trkpt lat="45.692873071704" lon="6.927147326642">
        <ele>1903.2</ele>
        <time>2018-01-29T09:31:54Z</time>
      </trkpt>
      <trkpt lat="45.692984131879" lon="6.927253776772">
        <ele>1901.6</ele>
        <time>2018-01-29T09:31:55Z</time>
      </trkpt>
      <trkpt lat="45.693189488429" lon="6.927428204111">
        <ele>1900</ele>
        <time>2018-01-29T09:31:57Z</time>
      </trkpt>
      <trkpt lat="45.693446393664" lon="6.92763364448">
        <ele>1898.6</ele>
        <time>2018-01-29T09:32:00Z</time>
      </trkpt>
      <trkpt lat="45.69373841906" lon="6.927875294657">
        <ele>1898</ele>
        <time>2018-01-29T09:32:06Z</time>
      </trkpt>
      <trkpt lat="45.693855430384" lon="6.927993730904">
        <ele>1898</ele>
        <time>2018-01-29T09:32:12Z</time>
      </trkpt>
      <trkpt lat="45.694017955425" lon="6.92821953929">
        <ele>1897.8</ele>
        <time>2018-01-29T09:32:18Z</time>
      </trkpt>
      <trkpt lat="45.694052237396" lon="6.928269160138">
        <ele>1897.6</ele>
        <time>2018-01-29T09:32:19Z</time>
      </trkpt>
      <trkpt lat="45.694223898708" lon="6.928516845283">
        <ele>1896.2</ele>
        <time>2018-01-29T09:32:24Z</time>
      </trkpt>
      <trkpt lat="45.694343759878" lon="6.928683645093">
        <ele>1895.2</ele>
        <time>2018-01-29T09:32:27Z</time>
      </trkpt>
      <trkpt lat="45.69446680617" lon="6.928859581174">
        <ele>1894.2</ele>
        <time>2018-01-29T09:32:30Z</time>
      </trkpt>
      <trkpt lat="45.694589098091" lon="6.929025123699">
        <ele>1892.8</ele>
        <time>2018-01-29T09:32:33Z</time>
      </trkpt>
      <trkpt lat="45.694785653646" lon="6.9293251119">
        <ele>1891.6</ele>
        <time>2018-01-29T09:32:39Z</time>
      </trkpt>
      <trkpt lat="45.694946083212" lon="6.929545052956">
        <ele>1890.6</ele>
        <time>2018-01-29T09:32:45Z</time>
      </trkpt>
      <trkpt lat="45.694975838957" lon="6.929569779561">
        <ele>1890.2</ele>
        <time>2018-01-29T09:32:46Z</time>
      </trkpt>
      <trkpt lat="45.695020263027" lon="6.929604312989">
        <ele>1889.8</ele>
        <time>2018-01-29T09:32:48Z</time>
      </trkpt>
      <trkpt lat="45.695027136185" lon="6.929619065133">
        <ele>1889.2</ele>
        <time>2018-01-29T09:32:53Z</time>
      </trkpt>
      <trkpt lat="45.69502252614" lon="6.92961764021">
        <ele>1889.2</ele>
        <time>2018-01-29T09:32:54Z</time>
      </trkpt>
      <trkpt lat="45.695233666201" lon="6.930043776006">
        <ele>1887.2</ele>
        <time>2018-01-29T09:33:19Z</time>
      </trkpt>
      <trkpt lat="45.695323855445" lon="6.930215521137">
        <ele>1885.8</ele>
        <time>2018-01-29T09:33:21Z</time>
      </trkpt>
      <trkpt lat="45.695417816544" lon="6.930430516872">
        <ele>1884.2</ele>
        <time>2018-01-29T09:33:23Z</time>
      </trkpt>
      <trkpt lat="45.695514292213" lon="6.930649284462">
        <ele>1882.6</ele>
        <time>2018-01-29T09:33:25Z</time>
      </trkpt>
      <trkpt lat="45.695635662125" lon="6.930893868304">
        <ele>1880.8</ele>
        <time>2018-01-29T09:33:27Z</time>
      </trkpt>
      <trkpt lat="45.695683941869" lon="6.931034684224">
        <ele>1879.4</ele>
        <time>2018-01-29T09:33:28Z</time>
      </trkpt>
      <trkpt lat="45.695744962101" lon="6.931169716633">
        <ele>1877.8</ele>
        <time>2018-01-29T09:33:29Z</time>
      </trkpt>
      <trkpt lat="45.695803970677" lon="6.931314304408">
        <ele>1875.8</ele>
        <time>2018-01-29T09:33:30Z</time>
      </trkpt>
      <trkpt lat="45.695853340068" lon="6.931467776997">
        <ele>1874.4</ele>
        <time>2018-01-29T09:33:31Z</time>
      </trkpt>
      <trkpt lat="45.695904134382" lon="6.931619489387">
        <ele>1872.8</ele>
        <time>2018-01-29T09:33:32Z</time>
      </trkpt>
      <trkpt lat="45.695968758831" lon="6.93176675937">
        <ele>1871.4</ele>
        <time>2018-01-29T09:33:33Z</time>
      </trkpt>
      <trkpt lat="45.696026929217" lon="6.931919477588">
        <ele>1869.8</ele>
        <time>2018-01-29T09:33:34Z</time>
      </trkpt>
      <trkpt lat="45.696075041323" lon="6.932079152783">
        <ele>1868.2</ele>
        <time>2018-01-29T09:33:35Z</time>
      </trkpt>
      <trkpt lat="45.696134971908" lon="6.932228182965">
        <ele>1866.4</ele>
        <time>2018-01-29T09:33:36Z</time>
      </trkpt>
      <trkpt lat="45.696189705715" lon="6.932386265599">
        <ele>1864.6</ele>
        <time>2018-01-29T09:33:37Z</time>
      </trkpt>
      <trkpt lat="45.69622868155" lon="6.932551975762">
        <ele>1862.6</ele>
        <time>2018-01-29T09:33:38Z</time>
      </trkpt>
      <trkpt lat="45.696273021801" lon="6.932704945437">
        <ele>1860.8</ele>
        <time>2018-01-29T09:33:39Z</time>
      </trkpt>
      <trkpt lat="45.696330186359" lon="6.93285556818">
        <ele>1859.2</ele>
        <time>2018-01-29T09:33:40Z</time>
      </trkpt>
      <trkpt lat="45.696368826918" lon="6.93300560419">
        <ele>1858</ele>
        <time>2018-01-29T09:33:41Z</time>
      </trkpt>
      <trkpt lat="45.696409898228" lon="6.933149437594">
        <ele>1857</ele>
        <time>2018-01-29T09:33:42Z</time>
      </trkpt>
      <trkpt lat="45.696465637863" lon="6.933286816935">
        <ele>1855.6</ele>
        <time>2018-01-29T09:33:43Z</time>
      </trkpt>
      <trkpt lat="45.696512241227" lon="6.933428973959">
        <ele>1854.2</ele>
        <time>2018-01-29T09:33:44Z</time>
      </trkpt>
      <trkpt lat="45.696550630329" lon="6.933559899237">
        <ele>1852.6</ele>
        <time>2018-01-29T09:33:45Z</time>
      </trkpt>
      <trkpt lat="45.696600754091" lon="6.933685795375">
        <ele>1851.2</ele>
        <time>2018-01-29T09:33:46Z</time>
      </trkpt>
      <trkpt lat="45.696640316659" lon="6.933815966282">
        <ele>1849.8</ele>
        <time>2018-01-29T09:33:47Z</time>
      </trkpt>
      <trkpt lat="45.696676610286" lon="6.933949154673">
        <ele>1848.2</ele>
        <time>2018-01-29T09:33:48Z</time>
      </trkpt>
      <trkpt lat="45.696713071551" lon="6.934077313924">
        <ele>1846.6</ele>
        <time>2018-01-29T09:33:49Z</time>
      </trkpt>
      <trkpt lat="45.696772163946" lon="6.934195750171">
        <ele>1845.2</ele>
        <time>2018-01-29T09:33:50Z</time>
      </trkpt>
      <trkpt lat="45.696832262169" lon="6.9343207243">
        <ele>1844</ele>
        <time>2018-01-29T09:33:51Z</time>
      </trkpt>
      <trkpt lat="45.696873836393" lon="6.934461875496">
        <ele>1842.6</ele>
        <time>2018-01-29T09:33:52Z</time>
      </trkpt>
      <trkpt lat="45.696913398961" lon="6.93460235614">
        <ele>1840.6</ele>
        <time>2018-01-29T09:33:53Z</time>
      </trkpt>
      <trkpt lat="45.696975676478" lon="6.934734287246">
        <ele>1838.2</ele>
        <time>2018-01-29T09:33:54Z</time>
      </trkpt>
      <trkpt lat="45.697038205452" lon="6.934869487293">
        <ele>1836.2</ele>
        <time>2018-01-29T09:33:55Z</time>
      </trkpt>
      <trkpt lat="45.697085227911" lon="6.935016422">
        <ele>1834.2</ele>
        <time>2018-01-29T09:33:56Z</time>
      </trkpt>
      <trkpt lat="45.697127807963" lon="6.935157154101">
        <ele>1832.2</ele>
        <time>2018-01-29T09:33:57Z</time>
      </trkpt>
      <trkpt lat="45.697186648901" lon="6.935278691651">
        <ele>1830.4</ele>
        <time>2018-01-29T09:33:58Z</time>
      </trkpt>
      <trkpt lat="45.697270216444" lon="6.935385644695">
        <ele>1829.4</ele>
        <time>2018-01-29T09:33:59Z</time>
      </trkpt>
      <trkpt lat="45.697333751246" lon="6.935516234697">
        <ele>1828.6</ele>
        <time>2018-01-29T09:34:00Z</time>
      </trkpt>
      <trkpt lat="45.697339115662" lon="6.935681441946">
        <ele>1826.8</ele>
        <time>2018-01-29T09:34:01Z</time>
      </trkpt>
      <trkpt lat="45.697324279699" lon="6.935841620055">
        <ele>1824.6</ele>
        <time>2018-01-29T09:34:02Z</time>
      </trkpt>
      <trkpt lat="45.697369039045" lon="6.9359971043">
        <ele>1822.2</ele>
        <time>2018-01-29T09:34:03Z</time>
      </trkpt>
      <trkpt lat="45.697434082589" lon="6.936159796979">
        <ele>1820.4</ele>
        <time>2018-01-29T09:34:04Z</time>
      </trkpt>
      <trkpt lat="45.697448164181" lon="6.936345456064">
        <ele>1818.6</ele>
        <time>2018-01-29T09:34:05Z</time>
      </trkpt>
      <trkpt lat="45.697423437576" lon="6.936512423512">
        <ele>1816.4</ele>
        <time>2018-01-29T09:34:06Z</time>
      </trkpt>
      <trkpt lat="45.69740130936" lon="6.936660028771">
        <ele>1813.6</ele>
        <time>2018-01-29T09:34:07Z</time>
      </trkpt>
      <trkpt lat="45.697425952146" lon="6.936798078664">
        <ele>1810.8</ele>
        <time>2018-01-29T09:34:08Z</time>
      </trkpt>
      <trkpt lat="45.697478841935" lon="6.936941660611">
        <ele>1808.6</ele>
        <time>2018-01-29T09:34:09Z</time>
      </trkpt>
      <trkpt lat="45.697523433643" lon="6.937098318322">
        <ele>1807.2</ele>
        <time>2018-01-29T09:34:10Z</time>
      </trkpt>
      <trkpt lat="45.697557547976" lon="6.937253299653">
        <ele>1805.6</ele>
        <time>2018-01-29T09:34:11Z</time>
      </trkpt>
      <trkpt lat="45.697599373657" lon="6.937407694251">
        <ele>1803.6</ele>
        <time>2018-01-29T09:34:12Z</time>
      </trkpt>
      <trkpt lat="45.697669027246" lon="6.937558568451">
        <ele>1801.6</ele>
        <time>2018-01-29T09:34:13Z</time>
      </trkpt>
      <trkpt lat="45.69773909993" lon="6.937705167882">
        <ele>1799.6</ele>
        <time>2018-01-29T09:34:14Z</time>
      </trkpt>
      <trkpt lat="45.697804059655" lon="6.937846570535">
        <ele>1797.6</ele>
        <time>2018-01-29T09:34:15Z</time>
      </trkpt>
      <trkpt lat="45.697908246672" lon="6.937938017064">
        <ele>1795.4</ele>
        <time>2018-01-29T09:34:16Z</time>
      </trkpt>
      <trkpt lat="45.698030287136" lon="6.938026613747">
        <ele>1793.4</ele>
        <time>2018-01-29T09:34:17Z</time>
      </trkpt>
      <trkpt lat="45.698101784743" lon="6.938168603133">
        <ele>1791.6</ele>
        <time>2018-01-29T09:34:18Z</time>
      </trkpt>
      <trkpt lat="45.698103125847" lon="6.938326685767">
        <ele>1789</ele>
        <time>2018-01-29T09:34:19Z</time>
      </trkpt>
      <trkpt lat="45.698089128074" lon="6.938460712348">
        <ele>1786</ele>
        <time>2018-01-29T09:34:20Z</time>
      </trkpt>
      <trkpt lat="45.698104802227" lon="6.938585015925">
        <ele>1783.6</ele>
        <time>2018-01-29T09:34:21Z</time>
      </trkpt>
      <trkpt lat="45.69811209448" lon="6.938695657005">
        <ele>1781.8</ele>
        <time>2018-01-29T09:34:22Z</time>
      </trkpt>
      <trkpt lat="45.698117039801" lon="6.938777045254">
        <ele>1780.4</ele>
        <time>2018-01-29T09:34:23Z</time>
      </trkpt>
      <trkpt lat="45.698124918787" lon="6.938831192328">
        <ele>1779</ele>
        <time>2018-01-29T09:34:24Z</time>
      </trkpt>
      <trkpt lat="45.698129025918" lon="6.938870335801">
        <ele>1777.8</ele>
        <time>2018-01-29T09:34:25Z</time>
      </trkpt>
      <trkpt lat="45.698105053684" lon="6.938904198677">
        <ele>1776.2</ele>
        <time>2018-01-29T09:34:27Z</time>
      </trkpt>
      <trkpt lat="45.698087870789" lon="6.938899504813">
        <ele>1775.4</ele>
        <time>2018-01-29T09:34:29Z</time>
      </trkpt>
      <trkpt lat="45.698089044255" lon="6.938901851745">
        <ele>1775.2</ele>
        <time>2018-01-29T09:34:30Z</time>
      </trkpt>
      <trkpt lat="45.698066580763" lon="6.939032609385">
        <ele>1774.6</ele>
        <time>2018-01-29T09:34:35Z</time>
      </trkpt>
      <trkpt lat="45.698057528311" lon="6.939112405073">
        <ele>1774</ele>
        <time>2018-01-29T09:34:37Z</time>
      </trkpt>
      <trkpt lat="45.698053169723" lon="6.939184657051">
        <ele>1772.8</ele>
        <time>2018-01-29T09:34:40Z</time>
      </trkpt>
      <trkpt lat="45.698058701777" lon="6.939185159965">
        <ele>1772</ele>
        <time>2018-01-29T09:34:42Z</time>
      </trkpt>
      <trkpt lat="45.698006650178" lon="6.939264033644">
        <ele>1771</ele>
        <time>2018-01-29T09:39:51Z</time>
      </trkpt>
      <trkpt lat="45.697855273064" lon="6.939422116278">
        <ele>1769.8</ele>
        <time>2018-01-29T09:39:57Z</time>
      </trkpt>
      <trkpt lat="45.697706997253" lon="6.939538205593">
        <ele>1769.4</ele>
        <time>2018-01-29T09:40:01Z</time>
      </trkpt>
      <trkpt lat="45.697604067521" lon="6.939584306043">
        <ele>1768.6</ele>
        <time>2018-01-29T09:40:03Z</time>
      </trkpt>
      <trkpt lat="45.697546064773" lon="6.939600147834">
        <ele>1768.2</ele>
        <time>2018-01-29T09:40:04Z</time>
      </trkpt>
      <trkpt lat="45.697423689033" lon="6.939585898604">
        <ele>1767.2</ele>
        <time>2018-01-29T09:40:06Z</time>
      </trkpt>
      <trkpt lat="45.697292177022" lon="6.939557400144">
        <ele>1766.4</ele>
        <time>2018-01-29T09:40:08Z</time>
      </trkpt>
      <trkpt lat="45.697222271976" lon="6.939548180054">
        <ele>1766</ele>
        <time>2018-01-29T09:40:09Z</time>
      </trkpt>
      <trkpt lat="45.697156641699" lon="6.939527476761">
        <ele>1765.2</ele>
        <time>2018-01-29T09:40:10Z</time>
      </trkpt>
      <trkpt lat="45.697094028906" lon="6.939507360201">
        <ele>1764.2</ele>
        <time>2018-01-29T09:40:11Z</time>
      </trkpt>
      <trkpt lat="45.696979783609" lon="6.93947643099">
        <ele>1762.4</ele>
        <time>2018-01-29T09:40:13Z</time>
      </trkpt>
      <trkpt lat="45.696880709551" lon="6.939426307228">
        <ele>1761.4</ele>
        <time>2018-01-29T09:40:15Z</time>
      </trkpt>
      <trkpt lat="45.696780126751" lon="6.939319940917">
        <ele>1760.2</ele>
        <time>2018-01-29T09:40:18Z</time>
      </trkpt>
      <trkpt lat="45.696703767642" lon="6.939244503817">
        <ele>1759.2</ele>
        <time>2018-01-29T09:40:21Z</time>
      </trkpt>
      <trkpt lat="45.696627492352" lon="6.939193793322">
        <ele>1758.2</ele>
        <time>2018-01-29T09:40:24Z</time>
      </trkpt>
      <trkpt lat="45.696577033314" lon="6.939169485812">
        <ele>1756.8</ele>
        <time>2018-01-29T09:40:27Z</time>
      </trkpt>
      <trkpt lat="45.696550295053" lon="6.939134952384">
        <ele>1756.4</ele>
        <time>2018-01-29T09:40:31Z</time>
      </trkpt>
      <trkpt lat="45.696371760583" lon="6.938787271172">
        <ele>1755</ele>
        <time>2018-01-29T09:41:12Z</time>
      </trkpt>
      <trkpt lat="45.696298418958" lon="6.938463646013">
        <ele>1755.6</ele>
        <time>2018-01-29T09:41:18Z</time>
      </trkpt>
      <trkpt lat="45.696283247719" lon="6.938416791192">
        <ele>1756.2</ele>
        <time>2018-01-29T09:41:19Z</time>
      </trkpt>
      <trkpt lat="45.696255755087" lon="6.938330457622">
        <ele>1758</ele>
        <time>2018-01-29T09:41:21Z</time>
      </trkpt>
      <trkpt lat="45.696232369586" lon="6.938237921446">
        <ele>1759.6</ele>
        <time>2018-01-29T09:41:23Z</time>
      </trkpt>
      <trkpt lat="45.696207223886" lon="6.938145804365">
        <ele>1761.6</ele>
        <time>2018-01-29T09:41:25Z</time>
      </trkpt>
      <trkpt lat="45.696196243597" lon="6.938097524621">
        <ele>1762.8</ele>
        <time>2018-01-29T09:41:26Z</time>
      </trkpt>
      <trkpt lat="45.689933707012" lon="6.916100066261">
        <ele>2152.8</ele>
        <time>2018-01-29T09:49:26Z</time>
      </trkpt>
      <trkpt lat="45.689878470291" lon="6.91604399135">
        <ele>2151.4</ele>
        <time>2018-01-29T09:49:29Z</time>
      </trkpt>
      <trkpt lat="45.68985508479" lon="6.916025970265">
        <ele>2150.6</ele>
        <time>2018-01-29T09:49:32Z</time>
      </trkpt>
      <trkpt lat="45.689760788415" lon="6.915946845129">
        <ele>2148.8</ele>
        <time>2018-01-29T09:54:15Z</time>
      </trkpt>
      <trkpt lat="45.689592647501" lon="6.91584617851">
        <ele>2147.4</ele>
        <time>2018-01-29T09:54:20Z</time>
      </trkpt>
      <trkpt lat="45.68953992535" lon="6.915816255127">
        <ele>2145.8</ele>
        <time>2018-01-29T09:54:21Z</time>
      </trkpt>
      <trkpt lat="45.689483598982" lon="6.915768143021">
        <ele>2146.6</ele>
        <time>2018-01-29T09:54:22Z</time>
      </trkpt>
      <trkpt lat="45.689370862427" lon="6.915661106158">
        <ele>2145.6</ele>
        <time>2018-01-29T09:54:24Z</time>
      </trkpt>
      <trkpt lat="45.689302298485" lon="6.915611904405">
        <ele>2144.6</ele>
        <time>2018-01-29T09:54:25Z</time>
      </trkpt>
      <trkpt lat="45.689237925493" lon="6.915546274128">
        <ele>2143.4</ele>
        <time>2018-01-29T09:54:26Z</time>
      </trkpt>
      <trkpt lat="45.689173384863" lon="6.915489277208">
        <ele>2142.2</ele>
        <time>2018-01-29T09:54:27Z</time>
      </trkpt>
      <trkpt lat="45.689098702134" lon="6.915432364107">
        <ele>2141</ele>
        <time>2018-01-29T09:54:28Z</time>
      </trkpt>
      <trkpt lat="45.689015469867" lon="6.915371092418">
        <ele>2139.2</ele>
        <time>2018-01-29T09:54:29Z</time>
      </trkpt>
      <trkpt lat="45.688921089673" lon="6.915306803245">
        <ele>2137</ele>
        <time>2018-01-29T09:54:30Z</time>
      </trkpt>
      <trkpt lat="45.688834504646" lon="6.915227007557">
        <ele>2134.6</ele>
        <time>2018-01-29T09:54:31Z</time>
      </trkpt>
      <trkpt lat="45.688750098913" lon="6.915136818313">
        <ele>2132.2</ele>
        <time>2018-01-29T09:54:32Z</time>
      </trkpt>
      <trkpt lat="45.688666363732" lon="6.915033553305">
        <ele>2130</ele>
        <time>2018-01-29T09:54:33Z</time>
      </trkpt>
      <trkpt lat="45.688583215284" lon="6.914922996044">
        <ele>2127.8</ele>
        <time>2018-01-29T09:54:34Z</time>
      </trkpt>
      <trkpt lat="45.688498725732" lon="6.914807074367">
        <ele>2126</ele>
        <time>2018-01-29T09:54:35Z</time>
      </trkpt>
      <trkpt lat="45.688410212868" lon="6.914691823242">
        <ele>2124.4</ele>
        <time>2018-01-29T09:54:36Z</time>
      </trkpt>
      <trkpt lat="45.688240898488" lon="6.914452687635">
        <ele>2122.2</ele>
        <time>2018-01-29T09:54:38Z</time>
      </trkpt>
      <trkpt lat="45.688165796664" lon="6.914335508673">
        <ele>2120.4</ele>
        <time>2018-01-29T09:54:39Z</time>
      </trkpt>
      <trkpt lat="45.688090275745" lon="6.914216988607">
        <ele>2118</ele>
        <time>2018-01-29T09:54:40Z</time>
      </trkpt>
      <trkpt lat="45.688021711803" lon="6.914092265935">
        <ele>2116</ele>
        <time>2018-01-29T09:54:41Z</time>
      </trkpt>
      <trkpt lat="45.687953064042" lon="6.913964106684">
        <ele>2114.2</ele>
        <time>2018-01-29T09:54:42Z</time>
      </trkpt>
      <trkpt lat="45.687893887828" lon="6.913829912465">
        <ele>2113</ele>
        <time>2018-01-29T09:54:43Z</time>
      </trkpt>
      <trkpt lat="45.687837477641" lon="6.913696807893">
        <ele>2111.6</ele>
        <time>2018-01-29T09:54:44Z</time>
      </trkpt>
      <trkpt lat="45.687770087165" lon="6.913568983918">
        <ele>2110</ele>
        <time>2018-01-29T09:54:45Z</time>
      </trkpt>
      <trkpt lat="45.687691884038" lon="6.913450044757">
        <ele>2108.4</ele>
        <time>2018-01-29T09:54:46Z</time>
      </trkpt>
      <trkpt lat="45.687608232676" lon="6.913338481668">
        <ele>2107.2</ele>
        <time>2018-01-29T09:54:47Z</time>
      </trkpt>
      <trkpt lat="45.68743355388" lon="6.913117786241">
        <ele>2105.8</ele>
        <time>2018-01-29T09:54:49Z</time>
      </trkpt>
      <trkpt lat="45.687337078211" lon="6.913002870392">
        <ele>2104.8</ele>
        <time>2018-01-29T09:54:50Z</time>
      </trkpt>
      <trkpt lat="45.687239345257" lon="6.912875716969">
        <ele>2103.2</ele>
        <time>2018-01-29T09:54:51Z</time>
      </trkpt>
      <trkpt lat="45.687136415525" lon="6.912749485555">
        <ele>2101.2</ele>
        <time>2018-01-29T09:54:52Z</time>
      </trkpt>
      <trkpt lat="45.687030468309" lon="6.912622080675">
        <ele>2099</ele>
        <time>2018-01-29T09:54:53Z</time>
      </trkpt>
      <trkpt lat="45.686915384822" lon="6.912509092663">
        <ele>2097</ele>
        <time>2018-01-29T09:54:54Z</time>
      </trkpt>
      <trkpt lat="45.686802899724" lon="6.912391243149">
        <ele>2094.8</ele>
        <time>2018-01-29T09:54:55Z</time>
      </trkpt>
      <trkpt lat="45.686699969992" lon="6.912280015336">
        <ele>2092.6</ele>
        <time>2018-01-29T09:54:56Z</time>
      </trkpt>
      <trkpt lat="45.686598465183" lon="6.912182030925">
        <ele>2090.6</ele>
        <time>2018-01-29T09:54:57Z</time>
      </trkpt>
      <trkpt lat="45.686501570419" lon="6.912092344595">
        <ele>2088.4</ele>
        <time>2018-01-29T09:54:58Z</time>
      </trkpt>
      <trkpt lat="45.686418421971" lon="6.91199553365">
        <ele>2086.8</ele>
        <time>2018-01-29T09:54:59Z</time>
      </trkpt>
      <trkpt lat="45.686344912708" lon="6.911903584207">
        <ele>2085.2</ele>
        <time>2018-01-29T09:55:00Z</time>
      </trkpt>
      <trkpt lat="45.686298225525" lon="6.911815071343">
        <ele>2083.8</ele>
        <time>2018-01-29T09:55:01Z</time>
      </trkpt>
      <trkpt lat="45.686288251064" lon="6.911728570135">
        <ele>2082.2</ele>
        <time>2018-01-29T09:55:02Z</time>
      </trkpt>
      <trkpt lat="45.686264530287" lon="6.91166361041">
        <ele>2081</ele>
        <time>2018-01-29T09:55:03Z</time>
      </trkpt>
      <trkpt lat="45.686233014343" lon="6.911617090865">
        <ele>2079.8</ele>
        <time>2018-01-29T09:55:04Z</time>
      </trkpt>
      <trkpt lat="45.686228152841" lon="6.911555902995">
        <ele>2078.4</ele>
        <time>2018-01-29T09:55:06Z</time>
      </trkpt>
      <trkpt lat="45.686228404298" lon="6.911538384824">
        <ele>2077.2</ele>
        <time>2018-01-29T09:55:08Z</time>
      </trkpt>
      <trkpt lat="45.686238211121" lon="6.911532266037">
        <ele>2076.8</ele>
        <time>2018-01-29T09:55:13Z</time>
      </trkpt>
      <trkpt lat="45.687134068593" lon="6.911499408989">
        <ele>2060.2</ele>
        <time>2018-01-29T09:57:19Z</time>
      </trkpt>
      <trkpt lat="45.687103893753" lon="6.911455990747">
        <ele>2059.2</ele>
        <time>2018-01-29T09:57:20Z</time>
      </trkpt>
      <trkpt lat="45.687071204343" lon="6.911399329103">
        <ele>2057.8</ele>
        <time>2018-01-29T09:57:21Z</time>
      </trkpt>
      <trkpt lat="45.687020912943" lon="6.91135180373">
        <ele>2056.2</ele>
        <time>2018-01-29T09:57:22Z</time>
      </trkpt>
      <trkpt lat="45.68696332929" lon="6.911292459878">
        <ele>2055</ele>
        <time>2018-01-29T09:57:23Z</time>
      </trkpt>
      <trkpt lat="45.686907505836" lon="6.911237223157">
        <ele>2055.6</ele>
        <time>2018-01-29T09:57:24Z</time>
      </trkpt>
      <trkpt lat="45.686794182548" lon="6.911090372269">
        <ele>2054.4</ele>
        <time>2018-01-29T09:57:26Z</time>
      </trkpt>
      <trkpt lat="45.686737437085" lon="6.911001943224">
        <ele>2053.6</ele>
        <time>2018-01-29T09:57:27Z</time>
      </trkpt>
      <trkpt lat="45.686673064093" lon="6.910903288261">
        <ele>2052.4</ele>
        <time>2018-01-29T09:57:28Z</time>
      </trkpt>
      <trkpt lat="45.686619168476" lon="6.91078686367">
        <ele>2051.2</ele>
        <time>2018-01-29T09:57:29Z</time>
      </trkpt>
      <trkpt lat="45.686576839881" lon="6.910650490157">
        <ele>2049.6</ele>
        <time>2018-01-29T09:57:30Z</time>
      </trkpt>
      <trkpt lat="45.686525961748" lon="6.910508836047">
        <ele>2048</ele>
        <time>2018-01-29T09:57:31Z</time>
      </trkpt>
      <trkpt lat="45.686468210457" lon="6.910368523041">
        <ele>2046.4</ele>
        <time>2018-01-29T09:57:32Z</time>
      </trkpt>
      <trkpt lat="45.686408363691" lon="6.910221001601">
        <ele>2044.6</ele>
        <time>2018-01-29T09:57:33Z</time>
      </trkpt>
      <trkpt lat="45.686351869685" lon="6.910066104089">
        <ele>2043</ele>
        <time>2018-01-29T09:57:34Z</time>
      </trkpt>
      <trkpt lat="45.686298812258" lon="6.909909362559">
        <ele>2041.4</ele>
        <time>2018-01-29T09:57:35Z</time>
      </trkpt>
      <trkpt lat="45.686246844478" lon="6.909748765355">
        <ele>2039.6</ele>
        <time>2018-01-29T09:57:36Z</time>
      </trkpt>
      <trkpt lat="45.686196553078" lon="6.909580540622">
        <ele>2037.4</ele>
        <time>2018-01-29T09:57:37Z</time>
      </trkpt>
      <trkpt lat="45.686161265279" lon="6.909401000324">
        <ele>2035.2</ele>
        <time>2018-01-29T09:57:38Z</time>
      </trkpt>
      <trkpt lat="45.686134946113" lon="6.90921274285">
        <ele>2032.6</ele>
        <time>2018-01-29T09:57:39Z</time>
      </trkpt>
      <trkpt lat="45.686112901716" lon="6.909014594734">
        <ele>2029.4</ele>
        <time>2018-01-29T09:57:40Z</time>
      </trkpt>
      <trkpt lat="45.686111225336" lon="6.908786607054">
        <ele>2025.8</ele>
        <time>2018-01-29T09:57:41Z</time>
      </trkpt>
      <trkpt lat="45.686131677172" lon="6.908543531954">
        <ele>2022.6</ele>
        <time>2018-01-29T09:57:42Z</time>
      </trkpt>
      <trkpt lat="45.686197558906" lon="6.908309928401">
        <ele>2019.8</ele>
        <time>2018-01-29T09:57:43Z</time>
      </trkpt>
      <trkpt lat="45.686265787572" lon="6.908071630984">
        <ele>2017.4</ele>
        <time>2018-01-29T09:57:44Z</time>
      </trkpt>
      <trkpt lat="45.686334100057" lon="6.907838195069">
        <ele>2014.4</ele>
        <time>2018-01-29T09:57:45Z</time>
      </trkpt>
      <trkpt lat="45.686404340379" lon="6.907606686991">
        <ele>2011.6</ele>
        <time>2018-01-29T09:57:46Z</time>
      </trkpt>
      <trkpt lat="45.686477430547" lon="6.907390014876">
        <ele>2008.8</ele>
        <time>2018-01-29T09:57:47Z</time>
      </trkpt>
      <trkpt lat="45.686546497403" lon="6.907188262543">
        <ele>2007.2</ele>
        <time>2018-01-29T09:57:48Z</time>
      </trkpt>
      <trkpt lat="45.686621012494" lon="6.907001010897">
        <ele>2006</ele>
        <time>2018-01-29T09:57:49Z</time>
      </trkpt>
      <trkpt lat="45.68693399264" lon="6.906660202843">
        <ele>2004.6</ele>
        <time>2018-01-29T09:57:51Z</time>
      </trkpt>
      <trkpt lat="45.687213780462" lon="6.906539419664">
        <ele>2003.2</ele>
        <time>2018-01-29T09:57:53Z</time>
      </trkpt>
      <trkpt lat="45.687373539476" lon="6.906539419664">
        <ele>2001.6</ele>
        <time>2018-01-29T09:57:55Z</time>
      </trkpt>
      <trkpt lat="45.687485437841" lon="6.906565822649">
        <ele>2000.6</ele>
        <time>2018-01-29T09:57:57Z</time>
      </trkpt>
      <trkpt lat="45.687627678684" lon="6.906559955319">
        <ele>1999.4</ele>
        <time>2018-01-29T09:58:00Z</time>
      </trkpt>
      <trkpt lat="45.687741672524" lon="6.906479153803">
        <ele>1998.4</ele>
        <time>2018-01-29T09:58:03Z</time>
      </trkpt>
      <trkpt lat="45.687753993917" lon="6.906452415542">
        <ele>1998.2</ele>
        <time>2018-01-29T09:58:04Z</time>
      </trkpt>
      <trkpt lat="45.687733290624" lon="6.906424336177">
        <ele>1997.8</ele>
        <time>2018-01-29T09:58:06Z</time>
      </trkpt>
      <trkpt lat="45.687714598987" lon="6.90642659929">
        <ele>1997.4</ele>
        <time>2018-01-29T09:58:08Z</time>
      </trkpt>
      <trkpt lat="45.687641508819" lon="6.906398352287">
        <ele>1996.4</ele>
        <time>2018-01-29T09:58:13Z</time>
      </trkpt>
      <trkpt lat="45.68130722317" lon="6.903234436494">
        <ele>2203.4</ele>
        <time>2018-01-29T10:05:34Z</time>
      </trkpt>
      <trkpt lat="45.680707414406" lon="6.90337810226">
        <ele>2204.6</ele>
        <time>2018-01-29T10:05:52Z</time>
      </trkpt>
      <trkpt lat="45.680476828337" lon="6.903265198067">
        <ele>2203</ele>
        <time>2018-01-29T10:05:57Z</time>
      </trkpt>
      <trkpt lat="45.68038689055" lon="6.903171404606">
        <ele>2202.2</ele>
        <time>2018-01-29T10:05:59Z</time>
      </trkpt>
      <trkpt lat="45.68034581924" lon="6.903103846492">
        <ele>2201.8</ele>
        <time>2018-01-29T10:06:00Z</time>
      </trkpt>
      <trkpt lat="45.680311537269" lon="6.903024218442">
        <ele>2201</ele>
        <time>2018-01-29T10:06:01Z</time>
      </trkpt>
      <trkpt lat="45.680282368257" lon="6.902939393614">
        <ele>2200.4</ele>
        <time>2018-01-29T10:06:02Z</time>
      </trkpt>
      <trkpt lat="45.680227047717" lon="6.902760607687">
        <ele>2199.2</ele>
        <time>2018-01-29T10:06:04Z</time>
      </trkpt>
      <trkpt lat="45.68017650486" lon="6.902570590014">
        <ele>2198</ele>
        <time>2018-01-29T10:06:06Z</time>
      </trkpt>
      <trkpt lat="45.680132499885" lon="6.902362635075">
        <ele>2196.6</ele>
        <time>2018-01-29T10:06:08Z</time>
      </trkpt>
      <trkpt lat="45.680103414692" lon="6.902143029295">
        <ele>2194.8</ele>
        <time>2018-01-29T10:06:10Z</time>
      </trkpt>
      <trkpt lat="45.680085477426" lon="6.901931470139">
        <ele>2193.2</ele>
        <time>2018-01-29T10:06:12Z</time>
      </trkpt>
      <trkpt lat="45.680062175744" lon="6.901730807453">
        <ele>2191.8</ele>
        <time>2018-01-29T10:06:14Z</time>
      </trkpt>
      <trkpt lat="45.680043567926" lon="6.901540705961">
        <ele>2190.6</ele>
        <time>2018-01-29T10:06:16Z</time>
      </trkpt>
      <trkpt lat="45.679995204363" lon="6.901269300039">
        <ele>2189.6</ele>
        <time>2018-01-29T10:06:19Z</time>
      </trkpt>
      <trkpt lat="45.679932759208" lon="6.900966713449">
        <ele>2188.2</ele>
        <time>2018-01-29T10:06:22Z</time>
      </trkpt>
      <trkpt lat="45.679872828623" lon="6.900728667489">
        <ele>2186.4</ele>
        <time>2018-01-29T10:06:24Z</time>
      </trkpt>
      <trkpt lat="45.679809042364" lon="6.900459189404">
        <ele>2184.2</ele>
        <time>2018-01-29T10:06:26Z</time>
      </trkpt>
      <trkpt lat="45.679762774276" lon="6.900319295493">
        <ele>2182.6</ele>
        <time>2018-01-29T10:06:27Z</time>
      </trkpt>
      <trkpt lat="45.679709800668" lon="6.900171522596">
        <ele>2181.2</ele>
        <time>2018-01-29T10:06:28Z</time>
      </trkpt>
      <trkpt lat="45.679653390481" lon="6.90001612217">
        <ele>2179.6</ele>
        <time>2018-01-29T10:06:29Z</time>
      </trkpt>
      <trkpt lat="45.679589017489" lon="6.899852758939">
        <ele>2177.6</ele>
        <time>2018-01-29T10:06:30Z</time>
      </trkpt>
      <trkpt lat="45.679516597873" lon="6.899689395708">
        <ele>2174.6</ele>
        <time>2018-01-29T10:06:31Z</time>
      </trkpt>
      <trkpt lat="45.679429007018" lon="6.899531480712">
        <ele>2171.8</ele>
        <time>2018-01-29T10:06:32Z</time>
      </trkpt>
      <trkpt lat="45.679332866625" lon="6.899378846313">
        <ele>2169.2</ele>
        <time>2018-01-29T10:06:33Z</time>
      </trkpt>
      <trkpt lat="45.679251478376" lon="6.89922487081">
        <ele>2167</ele>
        <time>2018-01-29T10:06:34Z</time>
      </trkpt>
      <trkpt lat="45.679179477855" lon="6.89907902575">
        <ele>2164.8</ele>
        <time>2018-01-29T10:06:35Z</time>
      </trkpt>
      <trkpt lat="45.679104962764" lon="6.898948519567">
        <ele>2162.6</ele>
        <time>2018-01-29T10:06:36Z</time>
      </trkpt>
      <trkpt lat="45.679024161248" lon="6.898836872659">
        <ele>2160.8</ele>
        <time>2018-01-29T10:06:37Z</time>
      </trkpt>
      <trkpt lat="45.678945539026" lon="6.898728746149">
        <ele>2159.2</ele>
        <time>2018-01-29T10:06:38Z</time>
      </trkpt>
      <trkpt lat="45.678868006451" lon="6.898628414806">
        <ele>2157.6</ele>
        <time>2018-01-29T10:06:39Z</time>
      </trkpt>
      <trkpt lat="45.678790306238" lon="6.898534369888">
        <ele>2156.6</ele>
        <time>2018-01-29T10:06:40Z</time>
      </trkpt>
      <trkpt lat="45.678636917468" lon="6.898340077446">
        <ele>2154.8</ele>
        <time>2018-01-29T10:06:42Z</time>
      </trkpt>
      <trkpt lat="45.678562737653" lon="6.898243685596">
        <ele>2153.6</ele>
        <time>2018-01-29T10:06:43Z</time>
      </trkpt>
      <trkpt lat="45.678488641657" lon="6.898149892135">
        <ele>2151.8</ele>
        <time>2018-01-29T10:06:44Z</time>
      </trkpt>
      <trkpt lat="45.67842636414" lon="6.898060121986">
        <ele>2150</ele>
        <time>2018-01-29T10:06:45Z</time>
      </trkpt>
      <trkpt lat="45.678364254261" lon="6.897979823384">
        <ele>2148.2</ele>
        <time>2018-01-29T10:06:46Z</time>
      </trkpt>
      <trkpt lat="45.678313543766" lon="6.897896926393">
        <ele>2146.4</ele>
        <time>2018-01-29T10:06:47Z</time>
      </trkpt>
      <trkpt lat="45.678274400293" lon="6.89781587342">
        <ele>2144.6</ele>
        <time>2018-01-29T10:06:48Z</time>
      </trkpt>
      <trkpt lat="45.678226288187" lon="6.897749572591">
        <ele>2143</ele>
        <time>2018-01-29T10:06:49Z</time>
      </trkpt>
      <trkpt lat="45.678177086434" lon="6.897686205427">
        <ele>2141.6</ele>
        <time>2018-01-29T10:06:50Z</time>
      </trkpt>
      <trkpt lat="45.678136685676" lon="6.897618479675">
        <ele>2140.4</ele>
        <time>2018-01-29T10:06:51Z</time>
      </trkpt>
      <trkpt lat="45.678093770348" lon="6.897556788891">
        <ele>2139</ele>
        <time>2018-01-29T10:06:52Z</time>
      </trkpt>
      <trkpt lat="45.678053453409" lon="6.897499456695">
        <ele>2138</ele>
        <time>2018-01-29T10:06:53Z</time>
      </trkpt>
      <trkpt lat="45.678019925809" lon="6.897438520282">
        <ele>2137.4</ele>
        <time>2018-01-29T10:06:54Z</time>
      </trkpt>
      <trkpt lat="45.677990002426" lon="6.897390827271">
        <ele>2136.6</ele>
        <time>2018-01-29T10:06:55Z</time>
      </trkpt>
      <trkpt lat="45.677925797072" lon="6.89733475236">
        <ele>2134.8</ele>
        <time>2018-01-29T10:06:57Z</time>
      </trkpt>
      <trkpt lat="45.677902243933" lon="6.897261326916">
        <ele>2133.4</ele>
        <time>2018-01-29T10:06:59Z</time>
      </trkpt>
      <trkpt lat="45.677900064639" lon="6.897218663045">
        <ele>2131.8</ele>
        <time>2018-01-29T10:07:01Z</time>
      </trkpt>
      <trkpt lat="45.677895370775" lon="6.897209442955">
        <ele>2130.8</ele>
        <time>2018-01-29T10:07:03Z</time>
      </trkpt>
      <trkpt lat="45.677863771012" lon="6.897223943642">
        <ele>2129.6</ele>
        <time>2018-01-29T10:07:07Z</time>
      </trkpt>
      <trkpt lat="45.67786310046" lon="6.897229894791">
        <ele>2129.2</ele>
        <time>2018-01-29T10:07:12Z</time>
      </trkpt>
      <trkpt lat="45.674731035887" lon="6.895500205907">
        <ele>2062</ele>
        <time>2018-01-29T10:09:18Z</time>
      </trkpt>
      <trkpt lat="45.674479997982" lon="6.895337429409">
        <ele>2058.6</ele>
        <time>2018-01-29T10:09:20Z</time>
      </trkpt>
      <trkpt lat="45.674317305303" lon="6.895275654806">
        <ele>2056</ele>
        <time>2018-01-29T10:09:21Z</time>
      </trkpt>
      <trkpt lat="45.674171124967" lon="6.895189069779">
        <ele>2052.4</ele>
        <time>2018-01-29T10:09:22Z</time>
      </trkpt>
      <trkpt lat="45.67401748474" lon="6.895095192499">
        <ele>2054.4</ele>
        <time>2018-01-29T10:09:23Z</time>
      </trkpt>
      <trkpt lat="45.673617165196" lon="6.89484029892">
        <ele>2050.2</ele>
        <time>2018-01-29T10:09:26Z</time>
      </trkpt>
      <trkpt lat="45.673501914071" lon="6.894752540427">
        <ele>2049</ele>
        <time>2018-01-29T10:09:27Z</time>
      </trkpt>
      <trkpt lat="45.673392614095" lon="6.894657908776">
        <ele>2047.4</ele>
        <time>2018-01-29T10:09:28Z</time>
      </trkpt>
      <trkpt lat="45.673277698246" lon="6.894564282953">
        <ele>2045.4</ele>
        <time>2018-01-29T10:09:29Z</time>
      </trkpt>
      <trkpt lat="45.673168565908" lon="6.894466549999">
        <ele>2043.4</ele>
        <time>2018-01-29T10:09:30Z</time>
      </trkpt>
      <trkpt lat="45.673061445226" lon="6.89435247234">
        <ele>2041.8</ele>
        <time>2018-01-29T10:09:31Z</time>
      </trkpt>
      <trkpt lat="45.672953570173" lon="6.894242166536">
        <ele>2040.6</ele>
        <time>2018-01-29T10:09:32Z</time>
      </trkpt>
      <trkpt lat="45.672839324876" lon="6.894149881817">
        <ele>2039.2</ele>
        <time>2018-01-29T10:09:33Z</time>
      </trkpt>
      <trkpt lat="45.672723403199" lon="6.894075618183">
        <ele>2037.4</ele>
        <time>2018-01-29T10:09:34Z</time>
      </trkpt>
      <trkpt lat="45.67261351649" lon="6.894013173028">
        <ele>2035</ele>
        <time>2018-01-29T10:09:35Z</time>
      </trkpt>
      <trkpt lat="45.672520812676" lon="6.893939663765">
        <ele>2032.4</ele>
        <time>2018-01-29T10:09:36Z</time>
      </trkpt>
      <trkpt lat="45.67244587849" lon="6.893861628276">
        <ele>2030.2</ele>
        <time>2018-01-29T10:09:37Z</time>
      </trkpt>
      <trkpt lat="45.672379158566" lon="6.893776132896">
        <ele>2028.8</ele>
        <time>2018-01-29T10:09:38Z</time>
      </trkpt>
      <trkpt lat="45.672283856363" lon="6.893611931475">
        <ele>2027.2</ele>
        <time>2018-01-29T10:09:40Z</time>
      </trkpt>
      <trkpt lat="45.672205820874" lon="6.893437504136">
        <ele>2026</ele>
        <time>2018-01-29T10:09:44Z</time>
      </trkpt>
      <trkpt lat="45.672184949943" lon="6.893499278739">
        <ele>2025</ele>
        <time>2018-01-29T10:09:49Z</time>
      </trkpt>
      <trkpt lat="45.672170449256" lon="6.893499530196">
        <ele>2025</ele>
        <time>2018-01-29T10:09:50Z</time>
      </trkpt>
      <trkpt lat="45.672154439827" lon="6.893488214631">
        <ele>2024.8</ele>
        <time>2018-01-29T10:09:51Z</time>
      </trkpt>
      <trkpt lat="45.672050671905" lon="6.893461224913">
        <ele>2023.8</ele>
        <time>2018-01-29T10:09:55Z</time>
      </trkpt>
      <trkpt lat="45.672032231725" lon="6.893481928206">
        <ele>2022.6</ele>
        <time>2018-01-29T10:09:57Z</time>
      </trkpt>
      <trkpt lat="45.672034494838" lon="6.893481173835">
        <ele>2021.6</ele>
        <time>2018-01-29T10:09:59Z</time>
      </trkpt>
      <trkpt lat="45.671853361979" lon="6.893310518351">
        <ele>2018.6</ele>
        <time>2018-01-29T10:10:49Z</time>
      </trkpt>
      <trkpt lat="45.671647334877" lon="6.893059731903">
        <ele>2017.2</ele>
        <time>2018-01-29T10:10:55Z</time>
      </trkpt>
      <trkpt lat="45.671478188135" lon="6.892832582413">
        <ele>2015.6</ele>
        <time>2018-01-29T10:10:58Z</time>
      </trkpt>
      <trkpt lat="45.671348771599" lon="6.892675757064">
        <ele>2014.2</ele>
        <time>2018-01-29T10:11:00Z</time>
      </trkpt>
      <trkpt lat="45.671209380602" lon="6.892525637235">
        <ele>2012.8</ele>
        <time>2018-01-29T10:11:02Z</time>
      </trkpt>
      <trkpt lat="45.671074851107" lon="6.892392616482">
        <ele>2011.2</ele>
        <time>2018-01-29T10:11:04Z</time>
      </trkpt>
      <trkpt lat="45.670923893088" lon="6.892276778624">
        <ele>2009.4</ele>
        <time>2018-01-29T10:11:06Z</time>
      </trkpt>
      <trkpt lat="45.670852227843" lon="6.892212405632">
        <ele>2008.8</ele>
        <time>2018-01-29T10:11:07Z</time>
      </trkpt>
      <trkpt lat="45.67079045324" lon="6.892138561093">
        <ele>2008</ele>
        <time>2018-01-29T10:11:08Z</time>
      </trkpt>
      <trkpt lat="45.670671011165" lon="6.891967570333">
        <ele>2006</ele>
        <time>2018-01-29T10:11:10Z</time>
      </trkpt>
      <trkpt lat="45.670553748384" lon="6.891755340625">
        <ele>2004.4</ele>
        <time>2018-01-29T10:11:12Z</time>
      </trkpt>
      <trkpt lat="45.670485435899" lon="6.891642184975">
        <ele>2003.2</ele>
        <time>2018-01-29T10:11:13Z</time>
      </trkpt>
      <trkpt lat="45.67042248783" lon="6.891510756783">
        <ele>2001.6</ele>
        <time>2018-01-29T10:11:14Z</time>
      </trkpt>
      <trkpt lat="45.670351912232" lon="6.891382932808">
        <ele>2000</ele>
        <time>2018-01-29T10:11:15Z</time>
      </trkpt>
      <trkpt lat="45.670281001358" lon="6.891241865431">
        <ele>1998</ele>
        <time>2018-01-29T10:11:16Z</time>
      </trkpt>
      <trkpt lat="45.670219729669" lon="6.891095098362">
        <ele>1995.4</ele>
        <time>2018-01-29T10:11:17Z</time>
      </trkpt>
      <trkpt lat="45.670154350849" lon="6.890959563039">
        <ele>1993.2</ele>
        <time>2018-01-29T10:11:18Z</time>
      </trkpt>
      <trkpt lat="45.670089055848" lon="6.890835846195">
        <ele>1991.2</ele>
        <time>2018-01-29T10:11:19Z</time>
      </trkpt>
      <trkpt lat="45.670036836611" lon="6.890721014165">
        <ele>1989.8</ele>
        <time>2018-01-29T10:11:20Z</time>
      </trkpt>
      <trkpt lat="45.669981180795" lon="6.890623029754">
        <ele>1988.2</ele>
        <time>2018-01-29T10:11:21Z</time>
      </trkpt>
      <trkpt lat="45.669933236327" lon="6.890527308456">
        <ele>1987</ele>
        <time>2018-01-29T10:11:22Z</time>
      </trkpt>
      <trkpt lat="45.669891662103" lon="6.890430078416">
        <ele>1985.6</ele>
        <time>2018-01-29T10:11:23Z</time>
      </trkpt>
      <trkpt lat="45.669843801454" lon="6.890334021842">
        <ele>1984.4</ele>
        <time>2018-01-29T10:11:24Z</time>
      </trkpt>
      <trkpt lat="45.669783200317" lon="6.890236791802">
        <ele>1983.4</ele>
        <time>2018-01-29T10:11:25Z</time>
      </trkpt>
      <trkpt lat="45.669719665515" lon="6.890130593129">
        <ele>1981.8</ele>
        <time>2018-01-29T10:11:26Z</time>
      </trkpt>
      <trkpt lat="45.669654873428" lon="6.890017437479">
        <ele>1980.2</ele>
        <time>2018-01-29T10:11:27Z</time>
      </trkpt>
      <trkpt lat="45.669585722753" lon="6.889900593793">
        <ele>1978.4</ele>
        <time>2018-01-29T10:11:28Z</time>
      </trkpt>
      <trkpt lat="45.66951053711" lon="6.889781403175">
        <ele>1977</ele>
        <time>2018-01-29T10:11:29Z</time>
      </trkpt>
      <trkpt lat="45.669423952083" lon="6.889663218385">
        <ele>1975.8</ele>
        <time>2018-01-29T10:11:30Z</time>
      </trkpt>
      <trkpt lat="45.669337367056" lon="6.889545285052">
        <ele>1974.8</ele>
        <time>2018-01-29T10:11:31Z</time>
      </trkpt>
      <trkpt lat="45.669261091766" lon="6.889414192136">
        <ele>1973.4</ele>
        <time>2018-01-29T10:11:32Z</time>
      </trkpt>
      <trkpt lat="45.669196551136" lon="6.889270861646">
        <ele>1972</ele>
        <time>2018-01-29T10:11:33Z</time>
      </trkpt>
      <trkpt lat="45.669133016334" lon="6.889122669654">
        <ele>1970</ele>
        <time>2018-01-29T10:11:34Z</time>
      </trkpt>
      <trkpt lat="45.669058501243" lon="6.888975567309">
        <ele>1968.2</ele>
        <time>2018-01-29T10:11:35Z</time>
      </trkpt>
      <trkpt lat="45.668983064143" lon="6.888825112204">
        <ele>1966.8</ele>
        <time>2018-01-29T10:11:36Z</time>
      </trkpt>
      <trkpt lat="45.668905531568" lon="6.888674740918">
        <ele>1965</ele>
        <time>2018-01-29T10:11:37Z</time>
      </trkpt>
      <trkpt lat="45.668829340097" lon="6.888523447623">
        <ele>1963.2</ele>
        <time>2018-01-29T10:11:38Z</time>
      </trkpt>
      <trkpt lat="45.668753064807" lon="6.88837366307">
        <ele>1961</ele>
        <time>2018-01-29T10:11:39Z</time>
      </trkpt>
      <trkpt lat="45.668671760377" lon="6.888222202137">
        <ele>1958.4</ele>
        <time>2018-01-29T10:11:40Z</time>
      </trkpt>
      <trkpt lat="45.668588360472" lon="6.888066634073">
        <ele>1955.6</ele>
        <time>2018-01-29T10:11:41Z</time>
      </trkpt>
      <trkpt lat="45.66850387092" lon="6.887912826208">
        <ele>1953.2</ele>
        <time>2018-01-29T10:11:42Z</time>
      </trkpt>
      <trkpt lat="45.668421476843" lon="6.887762706379">
        <ele>1951.8</ele>
        <time>2018-01-29T10:11:43Z</time>
      </trkpt>
      <trkpt lat="45.668279403638" lon="6.88748601986">
        <ele>1950.4</ele>
        <time>2018-01-29T10:11:45Z</time>
      </trkpt>
      <trkpt lat="45.668103048462" lon="6.887157281742">
        <ele>1949</ele>
        <time>2018-01-29T10:11:48Z</time>
      </trkpt>
      <trkpt lat="45.667962064904" lon="6.886931808632">
        <ele>1948</ele>
        <time>2018-01-29T10:11:51Z</time>
      </trkpt>
      <trkpt lat="45.667814794921" lon="6.886640956702">
        <ele>1946.6</ele>
        <time>2018-01-29T10:11:54Z</time>
      </trkpt>
      <trkpt lat="45.667688898783" lon="6.886399557982">
        <ele>1944.8</ele>
        <time>2018-01-29T10:11:56Z</time>
      </trkpt>
      <trkpt lat="45.667627878551" lon="6.886249857248">
        <ele>1943.4</ele>
        <time>2018-01-29T10:11:57Z</time>
      </trkpt>
      <trkpt lat="45.667561996817" lon="6.886096133202">
        <ele>1940.6</ele>
        <time>2018-01-29T10:11:58Z</time>
      </trkpt>
      <trkpt lat="45.667456887791" lon="6.885956742205">
        <ele>1937.2</ele>
        <time>2018-01-29T10:11:59Z</time>
      </trkpt>
      <trkpt lat="45.667332668033" lon="6.88581550719">
        <ele>1933</ele>
        <time>2018-01-29T10:12:00Z</time>
      </trkpt>
      <trkpt lat="45.667211968673" lon="6.885663878619">
        <ele>1929.4</ele>
        <time>2018-01-29T10:12:01Z</time>
      </trkpt>
      <trkpt lat="45.667076181893" lon="6.885558685774">
        <ele>1925.8</ele>
        <time>2018-01-29T10:12:02Z</time>
      </trkpt>
      <trkpt lat="45.666925726788" lon="6.88548861309">
        <ele>1923.2</ele>
        <time>2018-01-29T10:12:03Z</time>
      </trkpt>
      <trkpt lat="45.666774601131" lon="6.885431783808">
        <ele>1919.4</ele>
        <time>2018-01-29T10:12:04Z</time>
      </trkpt>
      <trkpt lat="45.666622050551" lon="6.88538300115">
        <ele>1915.4</ele>
        <time>2018-01-29T10:12:05Z</time>
      </trkpt>
      <trkpt lat="45.666466482487" lon="6.885337319795">
        <ele>1910.6</ele>
        <time>2018-01-29T10:12:06Z</time>
      </trkpt>
      <trkpt lat="45.666302867799" lon="6.885299768883">
        <ele>1906.6</ele>
        <time>2018-01-29T10:12:07Z</time>
      </trkpt>
      <trkpt lat="45.666138247283" lon="6.885272192432">
        <ele>1902.8</ele>
        <time>2018-01-29T10:12:08Z</time>
      </trkpt>
      <trkpt lat="45.665981589572" lon="6.885238916289">
        <ele>1899.8</ele>
        <time>2018-01-29T10:12:09Z</time>
      </trkpt>
      <trkpt lat="45.665830463915" lon="6.885201616834">
        <ele>1897.2</ele>
        <time>2018-01-29T10:12:10Z</time>
      </trkpt>
      <trkpt lat="45.665688977443" lon="6.885149397597">
        <ele>1895.8</ele>
        <time>2018-01-29T10:12:11Z</time>
      </trkpt>
      <trkpt lat="45.665451937311" lon="6.884996427922">
        <ele>1894.4</ele>
        <time>2018-01-29T10:12:13Z</time>
      </trkpt>
      <trkpt lat="45.665264685665" lon="6.884797190159">
        <ele>1893.4</ele>
        <time>2018-01-29T10:12:15Z</time>
      </trkpt>
      <trkpt lat="45.665032590854" lon="6.884525197504">
        <ele>1892.2</ele>
        <time>2018-01-29T10:12:18Z</time>
      </trkpt>
      <trkpt lat="45.664848105235" lon="6.884244571492">
        <ele>1890.6</ele>
        <time>2018-01-29T10:12:21Z</time>
      </trkpt>
      <trkpt lat="45.664724891305" lon="6.884057738941">
        <ele>1889.6</ele>
        <time>2018-01-29T10:12:23Z</time>
      </trkpt>
      <trkpt lat="45.664571502535" lon="6.883857579169">
        <ele>1888.2</ele>
        <time>2018-01-29T10:12:25Z</time>
      </trkpt>
      <trkpt lat="45.664488605544" lon="6.883753978885">
        <ele>1887.2</ele>
        <time>2018-01-29T10:12:26Z</time>
      </trkpt>
      <trkpt lat="45.664404618906" lon="6.883658509044">
        <ele>1885.8</ele>
        <time>2018-01-29T10:12:27Z</time>
      </trkpt>
      <trkpt lat="45.664317698603" lon="6.883571588741">
        <ele>1884.4</ele>
        <time>2018-01-29T10:12:28Z</time>
      </trkpt>
      <trkpt lat="45.664229688653" lon="6.883490284311">
        <ele>1883.2</ele>
        <time>2018-01-29T10:12:29Z</time>
      </trkpt>
      <trkpt lat="45.664143019807" lon="6.883405543302">
        <ele>1882.4</ele>
        <time>2018-01-29T10:12:30Z</time>
      </trkpt>
      <trkpt lat="45.664068420897" lon="6.883289370168">
        <ele>1881.8</ele>
        <time>2018-01-29T10:12:31Z</time>
      </trkpt>
      <trkpt lat="45.663995079272" lon="6.883167162066">
        <ele>1880.4</ele>
        <time>2018-01-29T10:12:32Z</time>
      </trkpt>
      <trkpt lat="45.663906482589" lon="6.883043026127">
        <ele>1878.8</ele>
        <time>2018-01-29T10:12:33Z</time>
      </trkpt>
      <trkpt lat="45.663815706612" lon="6.882910759745">
        <ele>1876.6</ele>
        <time>2018-01-29T10:12:34Z</time>
      </trkpt>
      <trkpt lat="45.663715794364" lon="6.882787294358">
        <ele>1874.8</ele>
        <time>2018-01-29T10:12:35Z</time>
      </trkpt>
      <trkpt lat="45.663615965935" lon="6.882662571686">
        <ele>1872.8</ele>
        <time>2018-01-29T10:12:36Z</time>
      </trkpt>
      <trkpt lat="45.663527453071" lon="6.882537513738">
        <ele>1870.2</ele>
        <time>2018-01-29T10:12:37Z</time>
      </trkpt>
      <trkpt lat="45.663428798108" lon="6.882428465219">
        <ele>1867.2</ele>
        <time>2018-01-29T10:12:38Z</time>
      </trkpt>
      <trkpt lat="45.663332154801" lon="6.882329810256">
        <ele>1864.4</ele>
        <time>2018-01-29T10:12:39Z</time>
      </trkpt>
      <trkpt lat="45.663251185647" lon="6.882230987655">
        <ele>1862.4</ele>
        <time>2018-01-29T10:12:40Z</time>
      </trkpt>
      <trkpt lat="45.663182034972" lon="6.882131410683">
        <ele>1861</ele>
        <time>2018-01-29T10:12:41Z</time>
      </trkpt>
      <trkpt lat="45.663032669514" lon="6.881953211489">
        <ele>1859.4</ele>
        <time>2018-01-29T10:12:43Z</time>
      </trkpt>
      <trkpt lat="45.662854218863" lon="6.88178548967">
        <ele>1857.8</ele>
        <time>2018-01-29T10:12:45Z</time>
      </trkpt>
      <trkpt lat="45.662741649946" lon="6.881689265458">
        <ele>1855.8</ele>
        <time>2018-01-29T10:12:46Z</time>
      </trkpt>
      <trkpt lat="45.66260636608" lon="6.881594969083">
        <ele>1852.6</ele>
        <time>2018-01-29T10:12:47Z</time>
      </trkpt>
      <trkpt lat="45.662466136893" lon="6.881498493414">
        <ele>1849.2</ele>
        <time>2018-01-29T10:12:48Z</time>
      </trkpt>
      <trkpt lat="45.662336887995" lon="6.881391456551">
        <ele>1846.4</ele>
        <time>2018-01-29T10:12:49Z</time>
      </trkpt>
      <trkpt lat="45.662218954662" lon="6.88128592843">
        <ele>1844.4</ele>
        <time>2018-01-29T10:12:50Z</time>
      </trkpt>
      <trkpt lat="45.662113007446" lon="6.881178891567">
        <ele>1842.4</ele>
        <time>2018-01-29T10:12:51Z</time>
      </trkpt>
      <trkpt lat="45.662021728555" lon="6.881051570506">
        <ele>1841</ele>
        <time>2018-01-29T10:12:52Z</time>
      </trkpt>
      <trkpt lat="45.661933886243" lon="6.880923746531">
        <ele>1839.6</ele>
        <time>2018-01-29T10:12:53Z</time>
      </trkpt>
      <trkpt lat="45.661846043931" lon="6.880805980836">
        <ele>1838.2</ele>
        <time>2018-01-29T10:12:54Z</time>
      </trkpt>
      <trkpt lat="45.661772283211" lon="6.880677570128">
        <ele>1836.8</ele>
        <time>2018-01-29T10:12:55Z</time>
      </trkpt>
      <trkpt lat="45.661711765893" lon="6.880545303746">
        <ele>1835.8</ele>
        <time>2018-01-29T10:12:56Z</time>
      </trkpt>
      <trkpt lat="45.661667090366" lon="6.880410522794">
        <ele>1834.8</ele>
        <time>2018-01-29T10:12:57Z</time>
      </trkpt>
      <trkpt lat="45.661629707092" lon="6.880275658023">
        <ele>1834.2</ele>
        <time>2018-01-29T10:12:58Z</time>
      </trkpt>
      <trkpt lat="45.661565082643" lon="6.880030990362">
        <ele>1832.8</ele>
        <time>2018-01-29T10:13:00Z</time>
      </trkpt>
      <trkpt lat="45.661532393233" lon="6.879920936015">
        <ele>1832</ele>
        <time>2018-01-29T10:13:01Z</time>
      </trkpt>
      <trkpt lat="45.661503224221" lon="6.879811384582">
        <ele>1831.4</ele>
        <time>2018-01-29T10:13:02Z</time>
      </trkpt>
      <trkpt lat="45.661490567552" lon="6.879708035755">
        <ele>1830.4</ele>
        <time>2018-01-29T10:13:03Z</time>
      </trkpt>
      <trkpt lat="45.661483694394" lon="6.879624468212">
        <ele>1829.6</ele>
        <time>2018-01-29T10:13:04Z</time>
      </trkpt>
      <trkpt lat="45.661481431281" lon="6.879566716921">
        <ele>1828.2</ele>
        <time>2018-01-29T10:13:05Z</time>
      </trkpt>
      <trkpt lat="45.661487550068" lon="6.879541235945">
        <ele>1827</ele>
        <time>2018-01-29T10:13:06Z</time>
      </trkpt>
      <trkpt lat="45.661494004131" lon="6.879531010027">
        <ele>1825.6</ele>
        <time>2018-01-29T10:13:07Z</time>
      </trkpt>
      <trkpt lat="45.661500206737" lon="6.879511228743">
        <ele>1824.6</ele>
        <time>2018-01-29T10:13:08Z</time>
      </trkpt>
      <trkpt lat="45.661507750447" lon="6.879498739712">
        <ele>1823.4</ele>
        <time>2018-01-29T10:13:10Z</time>
      </trkpt>
      <trkpt lat="45.66150749899" lon="6.879492453287">
        <ele>1823</ele>
        <time>2018-01-29T10:13:16Z</time>
      </trkpt>
      <trkpt lat="45.661514455967" lon="6.879486837414">
        <ele>1823</ele>
        <time>2018-01-29T10:13:18Z</time>
      </trkpt>
      <trkpt lat="45.661357127704" lon="6.879240828649">
        <ele>1821.6</ele>
        <time>2018-01-29T10:14:27Z</time>
      </trkpt>
      <trkpt lat="45.661229052272" lon="6.879147789559">
        <ele>1820.6</ele>
        <time>2018-01-29T10:14:32Z</time>
      </trkpt>
      <trkpt lat="45.66111103512" lon="6.879051481528">
        <ele>1820.2</ele>
        <time>2018-01-29T10:14:38Z</time>
      </trkpt>
      <trkpt lat="45.661012463976" lon="6.878968249261">
        <ele>1820.2</ele>
        <time>2018-01-29T10:14:44Z</time>
      </trkpt>
      <trkpt lat="45.660925376035" lon="6.878896081102">
        <ele>1819.4</ele>
        <time>2018-01-29T10:14:49Z</time>
      </trkpt>
      <trkpt lat="45.660819931733" lon="6.878813016473">
        <ele>1818.4</ele>
        <time>2018-01-29T10:14:55Z</time>
      </trkpt>
      <trkpt lat="45.660716750544" lon="6.87874705092">
        <ele>1818</ele>
        <time>2018-01-29T10:15:01Z</time>
      </trkpt>
      <trkpt lat="45.66061398845" lon="6.878663902472">
        <ele>1817.8</ele>
        <time>2018-01-29T10:15:07Z</time>
      </trkpt>
      <trkpt lat="45.66051089108" lon="6.878592907779">
        <ele>1818.6</ele>
        <time>2018-01-29T10:15:13Z</time>
      </trkpt>
      <trkpt lat="45.660432520315" lon="6.878529372977">
        <ele>1819.6</ele>
        <time>2018-01-29T10:15:18Z</time>
      </trkpt>
      <trkpt lat="45.660366973857" lon="6.87847547736">
        <ele>1820.8</ele>
        <time>2018-01-29T10:15:22Z</time>
      </trkpt>
      <trkpt lat="45.660314670801" lon="6.878437339715">
        <ele>1821.8</ele>
        <time>2018-01-29T10:15:25Z</time>
      </trkpt>
      <trkpt lat="45.660262535383" lon="6.878396436043">
        <ele>1823.2</ele>
        <time>2018-01-29T10:15:28Z</time>
      </trkpt>
      <trkpt lat="45.660211070517" lon="6.878357376389">
        <ele>1824.2</ele>
        <time>2018-01-29T10:15:31Z</time>
      </trkpt>
      <trkpt lat="45.660160108565" lon="6.878322172409">
        <ele>1825.4</ele>
        <time>2018-01-29T10:15:34Z</time>
      </trkpt>
      <trkpt lat="45.660126413327" lon="6.878292668121">
        <ele>1826.6</ele>
        <time>2018-01-29T10:15:36Z</time>
      </trkpt>
      <trkpt lat="45.657173972871" lon="6.87632719639">
        <ele>1984</ele>
        <time>2018-01-29T10:21:00Z</time>
      </trkpt>
      <trkpt lat="45.657116975951" lon="6.876462312618">
        <ele>1983.8</ele>
        <time>2018-01-29T10:21:03Z</time>
      </trkpt>
      <trkpt lat="45.657055788081" lon="6.876519644814">
        <ele>1982.8</ele>
        <time>2018-01-29T10:21:05Z</time>
      </trkpt>
      <trkpt lat="45.656983703741" lon="6.876487877413">
        <ele>1981</ele>
        <time>2018-01-29T10:21:07Z</time>
      </trkpt>
      <trkpt lat="45.656884964959" lon="6.876459043677">
        <ele>1979.4</ele>
        <time>2018-01-29T10:21:09Z</time>
      </trkpt>
      <trkpt lat="45.656835008835" lon="6.876445632637">
        <ele>1978.2</ele>
        <time>2018-01-29T10:21:10Z</time>
      </trkpt>
      <trkpt lat="45.656777425182" lon="6.876447644293">
        <ele>1976.4</ele>
        <time>2018-01-29T10:21:11Z</time>
      </trkpt>
      <trkpt lat="45.656725205945" lon="6.876435071443">
        <ele>1974.2</ele>
        <time>2018-01-29T10:21:12Z</time>
      </trkpt>
      <trkpt lat="45.656675752735" lon="6.876407159716">
        <ele>1972</ele>
        <time>2018-01-29T10:21:13Z</time>
      </trkpt>
      <trkpt lat="45.656618001444" lon="6.876391820839">
        <ele>1969.8</ele>
        <time>2018-01-29T10:21:14Z</time>
      </trkpt>
      <trkpt lat="45.656555723927" lon="6.876377906885">
        <ele>1967.4</ele>
        <time>2018-01-29T10:21:15Z</time>
      </trkpt>
      <trkpt lat="45.656494368419" lon="6.876360053438">
        <ele>1964.8</ele>
        <time>2018-01-29T10:21:16Z</time>
      </trkpt>
      <trkpt lat="45.656432929092" lon="6.876383271301">
        <ele>1961.4</ele>
        <time>2018-01-29T10:21:17Z</time>
      </trkpt>
      <trkpt lat="45.656366712082" lon="6.87641101539">
        <ele>1958</ele>
        <time>2018-01-29T10:21:18Z</time>
      </trkpt>
      <trkpt lat="45.656275852286" lon="6.876422917688">
        <ele>1954.4</ele>
        <time>2018-01-29T10:21:19Z</time>
      </trkpt>
      <trkpt lat="45.656181388273" lon="6.876430796674">
        <ele>1950.6</ele>
        <time>2018-01-29T10:21:20Z</time>
      </trkpt>
      <trkpt lat="45.656074854324" lon="6.876456948202">
        <ele>1947.2</ele>
        <time>2018-01-29T10:21:21Z</time>
      </trkpt>
      <trkpt lat="45.655969493841" lon="6.876488799422">
        <ele>1943.8</ele>
        <time>2018-01-29T10:21:22Z</time>
      </trkpt>
      <trkpt lat="45.655864300996" lon="6.876500114987">
        <ele>1939.6</ele>
        <time>2018-01-29T10:21:23Z</time>
      </trkpt>
      <trkpt lat="45.655767657689" lon="6.87654512579">
        <ele>1935.2</ele>
        <time>2018-01-29T10:21:24Z</time>
      </trkpt>
      <trkpt lat="45.655683335775" lon="6.876575216811">
        <ele>1930.8</ele>
        <time>2018-01-29T10:21:25Z</time>
      </trkpt>
      <trkpt lat="45.655591051056" lon="6.876616120483">
        <ele>1927.2</ele>
        <time>2018-01-29T10:21:26Z</time>
      </trkpt>
      <trkpt lat="45.655499101613" lon="6.876647636427">
        <ele>1923.4</ele>
        <time>2018-01-29T10:21:27Z</time>
      </trkpt>
      <trkpt lat="45.655403715591" lon="6.876680828751">
        <ele>1920.2</ele>
        <time>2018-01-29T10:21:28Z</time>
      </trkpt>
      <trkpt lat="45.655298355108" lon="6.876712512333">
        <ele>1916.8</ele>
        <time>2018-01-29T10:21:29Z</time>
      </trkpt>
      <trkpt lat="45.655215961031" lon="6.87674712958">
        <ele>1913.8</ele>
        <time>2018-01-29T10:21:30Z</time>
      </trkpt>
      <trkpt lat="45.655140859207" lon="6.876809658554">
        <ele>1910.8</ele>
        <time>2018-01-29T10:21:31Z</time>
      </trkpt>
      <trkpt lat="45.655056872569" lon="6.876850394588">
        <ele>1907.8</ele>
        <time>2018-01-29T10:21:32Z</time>
      </trkpt>
      <trkpt lat="45.654981938383" lon="6.876889202785">
        <ele>1904.6</ele>
        <time>2018-01-29T10:21:33Z</time>
      </trkpt>
      <trkpt lat="45.654901807419" lon="6.87693739871">
        <ele>1901.8</ele>
        <time>2018-01-29T10:21:34Z</time>
      </trkpt>
      <trkpt lat="45.654826118862" lon="6.876983247703">
        <ele>1899.2</ele>
        <time>2018-01-29T10:21:35Z</time>
      </trkpt>
      <trkpt lat="45.654749424477" lon="6.877023145547">
        <ele>1896.8</ele>
        <time>2018-01-29T10:21:36Z</time>
      </trkpt>
      <trkpt lat="45.654674741748" lon="6.877052482197">
        <ele>1894.4</ele>
        <time>2018-01-29T10:21:37Z</time>
      </trkpt>
      <trkpt lat="45.654606010168" lon="6.877085423064">
        <ele>1892.2</ele>
        <time>2018-01-29T10:21:38Z</time>
      </trkpt>
      <trkpt lat="45.654531411258" lon="6.877115765542">
        <ele>1889.4</ele>
        <time>2018-01-29T10:21:39Z</time>
      </trkpt>
      <trkpt lat="45.654456141796" lon="6.87714526983">
        <ele>1886.6</ele>
        <time>2018-01-29T10:21:40Z</time>
      </trkpt>
      <trkpt lat="45.654384644189" lon="6.877183156018">
        <ele>1884</ele>
        <time>2018-01-29T10:21:41Z</time>
      </trkpt>
      <trkpt lat="45.654297137153" lon="6.877213666134">
        <ele>1881.4</ele>
        <time>2018-01-29T10:21:42Z</time>
      </trkpt>
      <trkpt lat="45.654207199366" lon="6.877246355544">
        <ele>1878.6</ele>
        <time>2018-01-29T10:21:43Z</time>
      </trkpt>
      <trkpt lat="45.654135953216" lon="6.877317350237">
        <ele>1875.4</ele>
        <time>2018-01-29T10:21:44Z</time>
      </trkpt>
      <trkpt lat="45.654057079537" lon="6.877375185347">
        <ele>1872.4</ele>
        <time>2018-01-29T10:21:45Z</time>
      </trkpt>
      <trkpt lat="45.653976278021" lon="6.877426482575">
        <ele>1869.4</ele>
        <time>2018-01-29T10:21:46Z</time>
      </trkpt>
      <trkpt lat="45.653886424053" lon="6.877479037088">
        <ele>1866.6</ele>
        <time>2018-01-29T10:21:47Z</time>
      </trkpt>
      <trkpt lat="45.653786679443" lon="6.877520946588">
        <ele>1863.4</ele>
        <time>2018-01-29T10:21:48Z</time>
      </trkpt>
      <trkpt lat="45.653683414435" lon="6.877561514984">
        <ele>1860</ele>
        <time>2018-01-29T10:21:49Z</time>
      </trkpt>
      <trkpt lat="45.653568750043" lon="6.877619014818">
        <ele>1856</ele>
        <time>2018-01-29T10:21:50Z</time>
      </trkpt>
      <trkpt lat="45.653469340709" lon="6.87768171143">
        <ele>1852.6</ele>
        <time>2018-01-29T10:21:51Z</time>
      </trkpt>
      <trkpt lat="45.653360795104" lon="6.877727225147">
        <ele>1849.8</ele>
        <time>2018-01-29T10:21:52Z</time>
      </trkpt>
      <trkpt lat="45.6532337255" lon="6.877742480205">
        <ele>1846</ele>
        <time>2018-01-29T10:21:53Z</time>
      </trkpt>
      <trkpt lat="45.653106572077" lon="6.877775253434">
        <ele>1842</ele>
        <time>2018-01-29T10:21:54Z</time>
      </trkpt>
      <trkpt lat="45.652987381459" lon="6.877838872055">
        <ele>1837.4</ele>
        <time>2018-01-29T10:21:55Z</time>
      </trkpt>
      <trkpt lat="45.652873136162" lon="6.877911626947">
        <ele>1833.4</ele>
        <time>2018-01-29T10:21:56Z</time>
      </trkpt>
      <trkpt lat="45.652769787335" lon="6.877987986056">
        <ele>1829.2</ele>
        <time>2018-01-29T10:21:57Z</time>
      </trkpt>
      <trkpt lat="45.652674820408" lon="6.878079516404">
        <ele>1825.2</ele>
        <time>2018-01-29T10:21:58Z</time>
      </trkpt>
      <trkpt lat="45.652594605625" lon="6.878169118915">
        <ele>1821.4</ele>
        <time>2018-01-29T10:21:59Z</time>
      </trkpt>
      <trkpt lat="45.652545822967" lon="6.878244639834">
        <ele>1818.6</ele>
        <time>2018-01-29T10:22:00Z</time>
      </trkpt>
      <trkpt lat="45.65251204391" lon="6.878266432774">
        <ele>1815.6</ele>
        <time>2018-01-29T10:22:01Z</time>
      </trkpt>
      <trkpt lat="45.652531825194" lon="6.878232653717">
        <ele>1813.6</ele>
        <time>2018-01-29T10:22:02Z</time>
      </trkpt>
      <trkpt lat="45.65254976246" lon="6.878233156631">
        <ele>1812</ele>
        <time>2018-01-29T10:22:03Z</time>
      </trkpt>
      <trkpt lat="45.652566610079" lon="6.878225026188">
        <ele>1810.8</ele>
        <time>2018-01-29T10:22:04Z</time>
      </trkpt>
      <trkpt lat="45.652579602024" lon="6.878220499962">
        <ele>1809.6</ele>
        <time>2018-01-29T10:22:05Z</time>
      </trkpt>
      <trkpt lat="45.652577674187" lon="6.878224607093">
        <ele>1808.2</ele>
        <time>2018-01-29T10:22:07Z</time>
      </trkpt>
      <trkpt lat="45.652476756111" lon="6.878292584302">
        <ele>1807.6</ele>
        <time>2018-01-29T10:22:10Z</time>
      </trkpt>
      <trkpt lat="45.652335018182" lon="6.878454606429">
        <ele>1806.4</ele>
        <time>2018-01-29T10:22:12Z</time>
      </trkpt>
      <trkpt lat="45.652218509772" lon="6.878516045756">
        <ele>1804.2</ele>
        <time>2018-01-29T10:22:13Z</time>
      </trkpt>
      <trkpt lat="45.652079454051" lon="6.878555524505">
        <ele>1801</ele>
        <time>2018-01-29T10:22:14Z</time>
      </trkpt>
      <trkpt lat="45.651927406385" lon="6.878607240828">
        <ele>1796.8</ele>
        <time>2018-01-29T10:22:15Z</time>
      </trkpt>
      <trkpt lat="45.651770078122" lon="6.878653006002">
        <ele>1793.2</ele>
        <time>2018-01-29T10:22:16Z</time>
      </trkpt>
      <trkpt lat="45.651613420411" lon="6.878688964353">
        <ele>1789</ele>
        <time>2018-01-29T10:22:17Z</time>
      </trkpt>
      <trkpt lat="45.651464557867" lon="6.87871687608">
        <ele>1785</ele>
        <time>2018-01-29T10:22:18Z</time>
      </trkpt>
      <trkpt lat="45.651330363648" lon="6.87874285997">
        <ele>1781</ele>
        <time>2018-01-29T10:22:19Z</time>
      </trkpt>
      <trkpt lat="45.651205976252" lon="6.878760881055">
        <ele>1777.6</ele>
        <time>2018-01-29T10:22:20Z</time>
      </trkpt>
      <trkpt lat="45.651085863625" lon="6.878777561036">
        <ele>1774.4</ele>
        <time>2018-01-29T10:22:21Z</time>
      </trkpt>
      <trkpt lat="45.650972540337" lon="6.878809160799">
        <ele>1771.4</ele>
        <time>2018-01-29T10:22:22Z</time>
      </trkpt>
      <trkpt lat="45.650874807383" lon="6.87879398956">
        <ele>1769</ele>
        <time>2018-01-29T10:22:23Z</time>
      </trkpt>
      <trkpt lat="45.650760729724" lon="6.878772028982">
        <ele>1766.4</ele>
        <time>2018-01-29T10:22:24Z</time>
      </trkpt>
      <trkpt lat="45.650645059504" lon="6.878757779752">
        <ele>1763.4</ele>
        <time>2018-01-29T10:22:25Z</time>
      </trkpt>
      <trkpt lat="45.650527545266" lon="6.878769346774">
        <ele>1760.4</ele>
        <time>2018-01-29T10:22:26Z</time>
      </trkpt>
      <trkpt lat="45.650412210322" lon="6.878769849688">
        <ele>1758.2</ele>
        <time>2018-01-29T10:22:27Z</time>
      </trkpt>
      <trkpt lat="45.650290672772" lon="6.878761719245">
        <ele>1756.6</ele>
        <time>2018-01-29T10:22:28Z</time>
      </trkpt>
      <trkpt lat="45.650171649792" lon="6.878755851915">
        <ele>1754.8</ele>
        <time>2018-01-29T10:22:29Z</time>
      </trkpt>
      <trkpt lat="45.650049609328" lon="6.878742524694">
        <ele>1752.4</ele>
        <time>2018-01-29T10:22:30Z</time>
      </trkpt>
      <trkpt lat="45.649934861117" lon="6.878727521093">
        <ele>1749.6</ele>
        <time>2018-01-29T10:22:31Z</time>
      </trkpt>
      <trkpt lat="45.649821956924" lon="6.878707991266">
        <ele>1747.2</ele>
        <time>2018-01-29T10:22:32Z</time>
      </trkpt>
      <trkpt lat="45.649708214541" lon="6.878671362363">
        <ele>1745.2</ele>
        <time>2018-01-29T10:22:33Z</time>
      </trkpt>
      <trkpt lat="45.649601429135" lon="6.878630877786">
        <ele>1742.6</ele>
        <time>2018-01-29T10:22:34Z</time>
      </trkpt>
      <trkpt lat="45.649491458607" lon="6.878577820359">
        <ele>1740</ele>
        <time>2018-01-29T10:22:35Z</time>
      </trkpt>
      <trkpt lat="45.649386936314" lon="6.878499449594">
        <ele>1737</ele>
        <time>2018-01-29T10:22:36Z</time>
      </trkpt>
      <trkpt lat="45.649287610799" lon="6.8784134513">
        <ele>1734.2</ele>
        <time>2018-01-29T10:22:37Z</time>
      </trkpt>
      <trkpt lat="45.649202450695" lon="6.878301552935">
        <ele>1731.6</ele>
        <time>2018-01-29T10:22:38Z</time>
      </trkpt>
      <trkpt lat="45.649136233685" lon="6.878186469448">
        <ele>1729.6</ele>
        <time>2018-01-29T10:22:39Z</time>
      </trkpt>
      <trkpt lat="45.649077225109" lon="6.878069458124">
        <ele>1727.2</ele>
        <time>2018-01-29T10:22:40Z</time>
      </trkpt>
      <trkpt lat="45.649021904569" lon="6.877958984682">
        <ele>1724.4</ele>
        <time>2018-01-29T10:22:41Z</time>
      </trkpt>
      <trkpt lat="45.648958453586" lon="6.877873405483">
        <ele>1721</ele>
        <time>2018-01-29T10:22:42Z</time>
      </trkpt>
      <trkpt lat="45.648885028142" lon="6.877813391079">
        <ele>1718</ele>
        <time>2018-01-29T10:22:43Z</time>
      </trkpt>
      <trkpt lat="45.648807076472" lon="6.877768380276">
        <ele>1715.2</ele>
        <time>2018-01-29T10:22:44Z</time>
      </trkpt>
      <trkpt lat="45.648733399571" lon="6.877750778286">
        <ele>1713</ele>
        <time>2018-01-29T10:22:45Z</time>
      </trkpt>
      <trkpt lat="45.648651759865" lon="6.877731835192">
        <ele>1710.4</ele>
        <time>2018-01-29T10:22:46Z</time>
      </trkpt>
      <trkpt lat="45.648579340249" lon="6.877755388331">
        <ele>1708.2</ele>
        <time>2018-01-29T10:22:47Z</time>
      </trkpt>
      <trkpt lat="45.648512117411" lon="6.877802494609">
        <ele>1705.4</ele>
        <time>2018-01-29T10:22:48Z</time>
      </trkpt>
      <trkpt lat="45.648423520728" lon="6.877796459641">
        <ele>1702.6</ele>
        <time>2018-01-29T10:22:49Z</time>
      </trkpt>
      <trkpt lat="45.648331236009" lon="6.877803332799">
        <ele>1699.6</ele>
        <time>2018-01-29T10:22:50Z</time>
      </trkpt>
      <trkpt lat="45.648230150295" lon="6.877817833486">
        <ele>1696.2</ele>
        <time>2018-01-29T10:22:51Z</time>
      </trkpt>
      <trkpt lat="45.648121353233" lon="6.877804757722">
        <ele>1692.4</ele>
        <time>2018-01-29T10:22:52Z</time>
      </trkpt>
      <trkpt lat="45.648002330253" lon="6.877794783261">
        <ele>1688.4</ele>
        <time>2018-01-29T10:22:53Z</time>
      </trkpt>
      <trkpt lat="45.647879032504" lon="6.877787407189">
        <ele>1684.4</ele>
        <time>2018-01-29T10:22:54Z</time>
      </trkpt>
      <trkpt lat="45.647751879081" lon="6.877731835192">
        <ele>1680.4</ele>
        <time>2018-01-29T10:22:55Z</time>
      </trkpt>
      <trkpt lat="45.647630090074" lon="6.87764650745">
        <ele>1676.2</ele>
        <time>2018-01-29T10:22:56Z</time>
      </trkpt>
      <trkpt lat="45.64751978427" lon="6.877556485844">
        <ele>1672.6</ele>
        <time>2018-01-29T10:22:57Z</time>
      </trkpt>
      <trkpt lat="45.64741333414" lon="6.877478953269">
        <ele>1670.2</ele>
        <time>2018-01-29T10:22:58Z</time>
      </trkpt>
      <trkpt lat="45.647314679177" lon="6.877409048223">
        <ele>1668.4</ele>
        <time>2018-01-29T10:22:59Z</time>
      </trkpt>
      <trkpt lat="45.647222897372" lon="6.877345764878">
        <ele>1667.4</ele>
        <time>2018-01-29T10:23:00Z</time>
      </trkpt>
      <trkpt lat="45.647063138358" lon="6.877208804632">
        <ele>1665.6</ele>
        <time>2018-01-29T10:23:02Z</time>
      </trkpt>
      <trkpt lat="45.64698418086" lon="6.877138396672">
        <ele>1664.4</ele>
        <time>2018-01-29T10:23:03Z</time>
      </trkpt>
      <trkpt lat="45.646903379344" lon="6.877079136639">
        <ele>1663.2</ele>
        <time>2018-01-29T10:23:04Z</time>
      </trkpt>
      <trkpt lat="45.646827942244" lon="6.877063713943">
        <ele>1661.6</ele>
        <time>2018-01-29T10:23:05Z</time>
      </trkpt>
      <trkpt lat="45.646723168494" lon="6.877096319534">
        <ele>1659.4</ele>
        <time>2018-01-29T10:23:06Z</time>
      </trkpt>
      <trkpt lat="45.646616886002" lon="6.877089865471">
        <ele>1655.4</ele>
        <time>2018-01-29T10:23:07Z</time>
      </trkpt>
      <trkpt lat="45.646512196071" lon="6.877119705035">
        <ele>1650.6</ele>
        <time>2018-01-29T10:23:08Z</time>
      </trkpt>
      <trkpt lat="45.646384372096" lon="6.877171421358">
        <ele>1646</ele>
        <time>2018-01-29T10:23:09Z</time>
      </trkpt>
      <trkpt lat="45.646254285008" lon="6.877191873194">
        <ele>1642.8</ele>
        <time>2018-01-29T10:23:10Z</time>
      </trkpt>
      <trkpt lat="45.646106512111" lon="6.877209056089">
        <ele>1640.2</ele>
        <time>2018-01-29T10:23:11Z</time>
      </trkpt>
      <trkpt lat="45.645928480555" lon="6.877231184305">
        <ele>1637.4</ele>
        <time>2018-01-29T10:23:12Z</time>
      </trkpt>
      <trkpt lat="45.64574952699" lon="6.877238560377">
        <ele>1634.2</ele>
        <time>2018-01-29T10:23:13Z</time>
      </trkpt>
      <trkpt lat="45.645590941442" lon="6.877200841827">
        <ele>1630.6</ele>
        <time>2018-01-29T10:23:14Z</time>
      </trkpt>
      <trkpt lat="45.645466470227" lon="6.877125404727">
        <ele>1626.8</ele>
        <time>2018-01-29T10:23:15Z</time>
      </trkpt>
      <trkpt lat="45.645362450848" lon="6.877046614867">
        <ele>1623.4</ele>
        <time>2018-01-29T10:23:16Z</time>
      </trkpt>
      <trkpt lat="45.645261448953" lon="6.877001184969">
        <ele>1620.6</ele>
        <time>2018-01-29T10:23:17Z</time>
      </trkpt>
      <trkpt lat="45.645162542533" lon="6.876989031214">
        <ele>1618.8</ele>
        <time>2018-01-29T10:23:18Z</time>
      </trkpt>
      <trkpt lat="45.645112586409" lon="6.876961035668">
        <ele>1617.6</ele>
        <time>2018-01-29T10:23:19Z</time>
      </trkpt>
      <trkpt lat="45.645067324149" lon="6.87695164794">
        <ele>1616.4</ele>
        <time>2018-01-29T10:23:20Z</time>
      </trkpt>
      <trkpt lat="45.645042681363" lon="6.876930441733">
        <ele>1615.2</ele>
        <time>2018-01-29T10:23:21Z</time>
      </trkpt>
      <trkpt lat="45.645026336658" lon="6.87690638568">
        <ele>1614.2</ele>
        <time>2018-01-29T10:23:22Z</time>
      </trkpt>
      <trkpt lat="45.645013763808" lon="6.876890376251">
        <ele>1613</ele>
        <time>2018-01-29T10:23:24Z</time>
      </trkpt>
      <trkpt lat="45.645017619482" lon="6.87689213645">
        <ele>1612.6</ele>
        <time>2018-01-29T10:23:25Z</time>
      </trkpt>
      <trkpt lat="45.645044106286" lon="6.876907894422">
        <ele>1612.4</ele>
        <time>2018-01-29T10:23:30Z</time>
      </trkpt>
      <trkpt lat="45.6450529911" lon="6.87704803979">
        <ele>1613.6</ele>
        <time>2018-01-29T10:26:11Z</time>
      </trkpt>
      <trkpt lat="45.645068665253" lon="6.877060025907">
        <ele>1612.2</ele>
        <time>2018-01-29T10:26:14Z</time>
      </trkpt>
      <trkpt lat="45.644997754379" lon="6.877137474663">
        <ele>1610.8</ele>
        <time>2018-01-29T10:27:07Z</time>
      </trkpt>
      <trkpt lat="45.644947546798" lon="6.877340316643">
        <ele>1610</ele>
        <time>2018-01-29T10:27:13Z</time>
      </trkpt>
      <trkpt lat="45.644935476862" lon="6.877374179519">
        <ele>1609.8</ele>
        <time>2018-01-29T10:27:14Z</time>
      </trkpt>
      <trkpt lat="45.644868505481" lon="6.877590683996">
        <ele>1608.4</ele>
        <time>2018-01-29T10:27:19Z</time>
      </trkpt>
      <trkpt lat="45.644860291219" lon="6.877659750852">
        <ele>1608</ele>
        <time>2018-01-29T10:27:20Z</time>
      </trkpt>
    </trkseg>
  </trk>
</gpx>